Data Archive--November, 2002

Date Time Heat Index Current Temp Wind Chill High Temp Low Temp Humidity Dew Point Wind Speed Gust Wind Direction Rain Barometer
11/01/2002 12:00 a 34.3 34.3 34.3 34.4 34.1 93 32.5 0.0 0.0 --- 0.00 29.888
11/01/2002 12:30 a 34.0 34.0 34.0 34.2 33.8 93 32.2 0.0 0.0 --- 0.00 29.881
11/01/2002 1:00 a 34.0 34.0 34.0 34.1 33.8 92 31.9 0.0 0.0 --- 0.00 29.890
11/01/2002 1:30 a 33.7 33.7 33.7 33.9 33.5 92 31.6 0.0 0.0 --- 0.00 29.892
11/01/2002 2:00 a 32.8 32.8 32.8 33.5 32.4 93 31.0 0.0 0.0 --- 0.00 29.885
11/01/2002 2:30 a 32.0 32.0 32.0 32.4 31.6 93 30.2 0.0 0.0 --- 0.00 29.885
11/01/2002 3:00 a 31.4 31.4 31.4 31.6 31.2 93 29.6 0.0 0.0 --- 0.00 29.877
11/01/2002 3:30 a 31.1 31.1 31.1 31.2 30.9 93 29.3 0.0 0.0 --- 0.00 29.866
11/01/2002 4:00 a 30.6 30.6 30.6 30.9 30.2 93 28.8 0.0 0.0 --- 0.00 29.867
11/01/2002 4:30 a 30.1 30.1 30.1 30.2 30.0 93 28.3 0.0 0.0 --- 0.00 29.872
11/01/2002 5:00 a 29.9 29.9 29.9 30.0 29.7 93 28.1 0.0 0.0 --- 0.00 29.872
11/01/2002 5:30 a 29.9 29.9 29.9 30.0 29.7 93 28.1 0.0 0.0 --- 0.00 29.872
11/01/2002 6:00 a 30.0 30.0 30.0 30.1 30.0 94 28.5 0.0 0.0 --- 0.00 29.868
11/01/2002 6:30 a 30.1 30.1 30.1 30.1 30.0 93 28.3 0.0 0.0 --- 0.00 29.863
11/01/2002 7:00 a 30.2 30.2 30.2 30.3 30.1 93 28.4 0.0 0.0 --- 0.00 29.860
11/01/2002 7:30 a 30.3 30.3 30.3 30.5 30.2 94 28.8 0.0 0.0 --- 0.00 29.859
11/01/2002 8:00 a 30.6 30.6 30.6 31.3 30.5 94 29.1 0.0 0.0 --- 0.00 29.870
11/01/2002 8:30 a 32.6 32.6 32.6 34.1 31.3 94 31.1 0.0 0.0 --- 0.00 29.868
11/01/2002 9:00 a 35.2 35.2 35.2 35.6 34.1 91 32.8 0.0 0.0 --- 0.00 29.865
11/01/2002 9:30 a 38.3 38.3 38.3 39.1 35.6 87 34.8 0.0 0.0 --- 0.00 29.867
11/01/2002 10:00 a 39.7 39.7 39.7 40.5 39.0 84 35.3 0.0 1.0 SE 0.00 29.856
11/01/2002 10:30 a 41.9 41.9 41.9 42.8 40.5 80 36.2 0.0 2.0 SE 0.00 29.836
11/01/2002 11:00 a 43.9 43.9 43.9 45.1 42.8 77 37.2 0.0 2.0 SE 0.00 29.820
11/01/2002 11:30 a 46.4 46.4 46.4 47.9 45.1 72 37.9 0.0 2.0 ENE 0.00 29.807
11/01/2002 12:00 p 49.1 49.1 49.1 50.9 47.9 69 39.4 0.0 4.0 S 0.00 29.794
11/01/2002 12:30 p 51.1 51.1 51.1 51.4 49.9 68 40.9 0.0 3.0 S 0.00 29.779
11/01/2002 1:00 p 56.3 56.3 56.3 60.1 49.5 55 40.4 1.0 6.0 SSE 0.00 29.762
11/01/2002 1:30 p 53.9 53.9 53.9 59.7 51.6 61 40.8 1.0 6.0 SSE 0.00 29.748
11/01/2002 2:00 p 51.5 51.5 51.5 52.0 50.1 62 38.9 1.0 6.0 SSE 0.00 29.742
11/01/2002 2:30 p 49.4 49.4 49.4 50.1 49.0 65 38.1 1.0 5.0 SSE 0.00 29.733
11/01/2002 3:00 p 49.0 49.0 49.0 49.3 48.7 65 37.8 1.0 7.0 S 0.00 29.725
11/01/2002 3:30 p 49.5 49.5 49.5 49.9 49.0 65 38.2 1.0 4.0 S 0.00 29.714
11/01/2002 4:00 p 48.9 48.9 48.9 49.1 48.7 66 38.1 1.0 4.0 SSE 0.00 29.715
11/01/2002 4:30 p 47.6 47.6 47.6 48.7 47.0 68 37.6 1.0 5.0 SSE 0.00 29.713
11/01/2002 5:00 p 46.7 46.7 46.7 47.0 46.2 70 37.4 1.0 6.0 SSW 0.00 29.718
11/01/2002 5:30 p 46.1 46.1 46.1 46.3 45.8 69 36.5 1.0 11.0 S 0.00 29.732
11/01/2002 6:00 p 39.3 39.3 39.3 39.7 39.2 86 35.5 0.0 1.0 SSW 0.00 29.752
11/01/2002 6:30 p 38.7 38.7 38.7 39.3 38.4 85 34.6 0.0 2.0 SE 0.00 29.759
11/01/2002 7:00 p 38.4 38.4 38.4 38.5 38.2 84 34.0 0.0 2.0 NNE 0.00 29.767
11/01/2002 7:30 p 38.1 38.1 38.1 38.3 37.9 83 33.4 0.0 2.0 ENE 0.00 29.764
11/01/2002 8:00 p 38.0 38.0 38.0 38.3 37.8 81 32.7 0.0 2.0 E 0.00 29.773
11/01/2002 8:30 p 38.1 38.1 38.1 38.3 37.9 78 31.9 0.0 4.0 SE 0.00 29.789
11/01/2002 9:00 p 38.2 38.2 38.2 38.5 38.0 76 31.3 0.0 6.0 SE 0.00 29.806
11/01/2002 9:30 p 38.4 38.4 38.4 38.8 38.3 73 30.5 1.0 4.0 SE 0.00 29.809
11/01/2002 10:00 p 38.3 38.3 38.3 38.9 37.4 73 30.4 0.0 4.0 SE 0.00 29.814
11/01/2002 10:30 p 37.1 37.1 37.1 37.4 36.6 71 28.6 1.0 7.0 SSE 0.00 29.817
11/01/2002 11:00 p 36.0 36.0 36.0 36.6 35.4 73 28.2 0.0 2.0 SE 0.00 29.820
11/01/2002 11:30 p 34.8 34.8 34.8 35.4 34.4 73 27.0 0.0 3.0 ESE 0.00 29.824
11/02/2002 12:00 a 34.2 34.2 34.2 34.9 33.6 75 27.1 0.0 2.0 ESE 0.00 29.825
11/02/2002 12:30 a 33.3 33.3 33.3 33.6 33.0 76 26.6 0.0 1.0 ESE 0.00 29.835
11/02/2002 1:00 a 33.2 33.2 33.2 33.5 32.9 75 26.1 0.0 2.0 ESE 0.00 29.833
11/02/2002 1:30 a 32.6 32.6 32.6 33.3 32.1 78 26.5 0.0 0.0 --- 0.00 29.836
11/02/2002 2:00 a 32.0 32.0 32.0 32.2 31.9 78 25.9 0.0 0.0 --- 0.00 29.838
11/02/2002 2:30 a 32.0 32.0 32.0 32.3 31.6 79 26.2 0.0 1.0 --- 0.00 29.847
11/02/2002 3:00 a 31.1 31.1 31.1 31.6 30.9 83 26.6 0.0 0.0 --- 0.00 29.844
11/02/2002 3:30 a 30.5 30.5 30.5 30.9 30.2 85 26.5 0.0 0.0 --- 0.00 29.847
11/02/2002 4:00 a 30.2 30.2 30.2 30.3 30.0 86 26.5 0.0 0.0 --- 0.00 29.846
11/02/2002 4:30 a 30.2 30.2 30.2 30.3 30.0 87 26.8 0.0 0.0 --- 0.00 29.845
11/02/2002 5:00 a 30.2 30.2 30.2 30.3 30.2 87 26.8 0.0 1.0 E 0.00 29.857
11/02/2002 5:30 a 30.0 30.0 30.0 30.2 29.8 87 26.6 0.0 1.0 SE 0.00 29.860
11/02/2002 6:00 a 29.4 29.4 29.4 29.8 29.1 89 26.6 0.0 0.0 --- 0.00 29.866
11/02/2002 6:30 a 29.7 29.7 29.7 30.0 29.2 88 26.6 0.0 0.0 --- 0.00 29.867
11/02/2002 7:00 a 29.6 29.6 29.6 30.0 29.4 89 26.8 0.0 0.0 --- 0.00 29.869
11/02/2002 7:30 a 30.2 30.2 30.2 31.5 29.5 88 27.1 0.0 0.0 --- 0.00 29.874
11/02/2002 8:00 a 34.4 34.4 34.4 36.7 31.5 79 28.6 0.0 2.0 SE 0.00 29.876
11/02/2002 8:30 a 37.0 37.0 37.0 37.3 36.7 77 30.5 0.0 2.0 E 0.00 29.871
11/02/2002 9:00 a 37.9 37.9 37.9 38.3 37.3 74 30.4 0.0 3.0 SSE 0.00 29.872
11/02/2002 9:30 a 39.3 39.3 39.3 40.3 38.2 70 30.3 0.0 4.0 SSE 0.00 29.863
11/02/2002 10:00 a 40.8 40.8 40.8 41.3 40.2 66 30.3 0.0 4.0 SSE 0.00 29.857
11/02/2002 10:30 a 42.6 42.6 42.6 44.4 41.2 55 27.6 0.0 4.0 SE 0.00 29.838
11/02/2002 11:00 a 43.6 43.6 43.6 44.3 43.2 54 28.1 0.0 4.0 SE 0.00 29.827
11/02/2002 11:30 a 44.9 44.9 44.9 45.7 43.9 50 27.4 1.0 6.0 SSE 0.00 29.816
11/02/2002 12:00 p 48.6 48.6 48.6 53.0 45.6 39 24.8 0.0 3.0 SSE 0.00 29.804
11/02/2002 12:30 p 47.0 47.0 47.0 51.6 44.5 48 28.3 1.0 3.0 SSE 0.00 29.794
11/02/2002 1:00 p 44.7 44.7 44.7 45.2 44.3 49 26.7 0.0 6.0 SSE 0.00 29.778
11/02/2002 1:30 p 44.0 44.0 44.0 44.4 43.4 50 26.6 0.0 4.0 S 0.00 29.776
11/02/2002 2:00 p 43.7 43.7 43.7 44.0 43.4 52 27.2 0.0 2.0 S 0.00 29.776
11/02/2002 2:30 p 43.3 43.3 43.3 43.5 43.0 54 27.8 0.0 4.0 S 0.00 29.780
11/02/2002 3:00 p 43.3 43.3 43.3 43.6 42.9 53 27.3 0.0 4.0 SSE 0.00 29.777
11/02/2002 3:30 p 42.4 42.4 42.4 42.9 42.2 55 27.4 0.0 4.0 SE 0.00 29.778
11/02/2002 4:00 p 42.9 42.9 42.9 43.2 42.3 52 26.5 0.0 2.0 SE 0.00 29.793
11/02/2002 4:30 p 42.2 42.2 42.2 42.8 41.6 57 28.1 0.0 1.0 N 0.00 29.800
11/02/2002 5:00 p 41.3 41.3 41.3 41.7 40.6 60 28.5 0.0 1.0 --- 0.00 29.799
11/02/2002 5:30 p 39.2 39.2 39.2 40.6 37.6 65 28.4 0.0 0.0 --- 0.00 29.805
11/02/2002 6:00 p 36.5 36.5 36.5 37.6 35.9 71 28.0 0.0 0.0 --- 0.00 29.817
11/02/2002 6:30 p 35.7 35.7 35.7 36.2 34.9 75 28.6 0.0 0.0 --- 0.00 29.818
11/02/2002 7:00 p 34.0 34.0 34.0 34.9 33.4 79 28.2 0.0 0.0 --- 0.00 29.819
11/02/2002 7:30 p 32.9 32.9 32.9 33.4 32.4 83 28.3 0.0 0.0 --- 0.00 29.819
11/02/2002 8:00 p 31.9 31.9 31.9 32.4 31.2 85 27.9 0.0 0.0 --- 0.00 29.820
11/02/2002 8:30 p 31.2 31.2 31.2 31.8 31.0 85 27.2 0.0 0.0 --- 0.00 29.829
11/02/2002 9:00 p 32.9 32.9 32.9 33.4 31.9 82 28.0 0.0 0.0 --- 0.00 29.835
11/02/2002 9:30 p 33.8 33.8 33.8 34.4 33.3 76 27.0 0.0 0.0 --- 0.00 29.842
11/02/2002 10:00 p 35.3 35.3 35.3 36.1 34.5 69 26.2 0.0 1.0 N 0.00 29.846
11/02/2002 10:30 p 35.0 35.0 35.0 36.1 33.8 72 26.9 0.0 1.0 N 0.00 29.850
11/02/2002 11:00 p 32.9 32.9 32.9 33.8 32.3 77 26.5 0.0 0.0 --- 0.00 29.854
11/02/2002 11:30 p 31.9 31.9 31.9 32.3 31.2 81 26.7 0.0 0.0 --- 0.00 29.860
11/03/2002 12:00 a 31.2 31.2 31.2 31.4 31.0 83 26.6 0.0 0.0 --- 0.00 29.863
11/03/2002 12:30 a 30.5 30.5 30.5 31.0 30.2 83 26.0 0.0 0.0 --- 0.00 29.866
11/03/2002 1:00 a 29.8 29.8 29.8 30.2 29.4 84 25.6 0.0 0.0 --- 0.00 29.869
11/03/2002 1:30 a 29.3 29.3 29.3 29.5 29.2 86 25.6 0.0 0.0 --- 0.00 29.869
11/03/2002 2:00 a 29.2 29.2 29.2 29.5 28.7 88 26.1 0.0 0.0 --- 0.00 29.866
11/03/2002 2:30 a 28.7 28.7 28.7 28.8 28.7 88 25.6 0.0 0.0 --- 0.00 29.872
11/03/2002 3:00 a 28.7 28.7 28.7 28.8 28.6 89 25.9 0.0 0.0 --- 0.00 29.876
11/03/2002 3:30 a 29.0 29.0 29.0 29.3 28.6 88 25.9 0.0 0.0 --- 0.00 29.883
11/03/2002 4:00 a 29.4 29.4 29.4 29.9 29.2 86 25.7 0.0 0.0 --- 0.00 29.897
11/03/2002 4:30 a 30.6 30.6 30.6 31.1 29.9 84 26.3 0.0 0.0 --- 0.00 29.910
11/03/2002 5:00 a 30.7 30.7 30.7 31.0 30.5 84 26.4 0.0 0.0 --- 0.00 29.924
11/03/2002 5:30 a 30.4 30.4 30.4 30.5 30.2 85 26.4 0.0 0.0 --- 0.00 29.939
11/03/2002 6:00 a 30.0 30.0 30.0 30.2 29.6 86 26.3 0.0 0.0 --- 0.00 29.944
11/03/2002 6:30 a 29.6 29.6 29.6 29.8 29.4 86 25.9 0.0 0.0 --- 0.00 29.958
11/03/2002 7:00 a 30.1 30.1 30.1 30.7 29.6 85 26.1 0.0 0.0 --- 0.00 29.971
11/03/2002 7:30 a 31.3 31.3 31.3 32.6 30.7 83 26.7 0.0 0.0 --- 0.00 29.984
11/03/2002 8:00 a 35.3 35.3 35.3 37.1 32.7 75 28.2 0.0 2.0 N 0.00 29.997
11/03/2002 8:30 a 39.6 39.6 39.6 40.4 37.2 64 28.4 1.0 6.0 SE 0.00 30.003
11/03/2002 9:00 a 41.1 41.1 41.1 41.8 40.4 61 28.7 1.0 5.0 SSE 0.00 30.009
11/03/2002 9:30 a 42.3 42.3 42.3 42.8 41.8 56 27.7 1.0 4.0 SE 0.00 30.000
11/03/2002 10:00 a 43.3 43.3 43.3 43.7 42.7 54 27.8 1.0 4.0 SE 0.00 30.000
11/03/2002 10:30 a 44.7 44.7 44.7 45.5 43.3 51 27.7 1.0 4.0 SSE 0.00 30.004
11/03/2002 11:00 a 44.7 44.7 44.7 45.5 44.2 48 26.2 1.0 5.0 SE 0.00 30.005
11/03/2002 11:30 a 44.5 44.5 44.5 44.6 44.2 51 27.5 0.0 5.0 S 0.00 30.006
11/03/2002 12:00 p 44.5 44.5 44.5 45.9 44.3 43 23.4 0.0 3.0 SE 0.00 30.003
11/03/2002 12:30 p 45.8 45.8 45.8 46.9 45.0 47 26.7 0.0 4.0 SSE 0.00 29.997
11/03/2002 1:00 p 45.1 45.1 45.1 45.3 44.9 46 25.6 0.0 3.0 SSE 0.00 29.998
11/03/2002 1:30 p 45.0 45.0 45.0 45.1 44.8 46 25.5 0.0 3.0 SSE 0.00 29.990
11/03/2002 2:00 p 45.0 45.0 45.0 45.5 44.7 45 25.0 0.0 4.0 SSE 0.00 29.982
11/03/2002 2:30 p 45.5 45.5 45.5 45.7 45.2 42 23.8 0.0 4.0 SSE 0.00 29.983
11/03/2002 3:00 p 45.2 45.2 45.2 45.3 45.0 43 24.0 0.0 3.0 SSE 0.00 29.984
11/03/2002 3:30 p 44.8 44.8 44.8 45.0 44.4 42 23.1 0.0 2.0 SSE 0.00 29.993
11/03/2002 4:00 p 43.9 43.9 43.9 44.4 43.5 51 27.0 0.0 1.0 SSE 0.00 29.998
11/03/2002 4:30 p 43.0 43.0 43.0 43.5 42.4 56 28.4 0.0 0.0 --- 0.00 30.006
11/03/2002 5:00 p 41.6 41.6 41.6 42.4 40.8 60 28.8 0.0 0.0 --- 0.00 30.000
11/03/2002 5:30 p 40.2 40.2 40.2 40.8 39.7 63 28.6 0.0 0.0 --- 0.00 30.005
11/03/2002 6:00 p 39.3 39.3 39.3 39.7 38.9 65 28.5 0.0 0.0 --- 0.00 30.016
11/03/2002 6:30 p 38.8 38.8 38.8 39.0 38.7 71 30.2 0.0 0.0 --- 0.00 30.020
11/03/2002 7:00 p 38.5 38.5 38.5 38.7 38.2 72 30.3 0.0 0.0 --- 0.00 30.017
11/03/2002 7:30 p 38.0 38.0 38.0 38.2 37.9 76 31.1 0.0 0.0 --- 0.00 30.019
11/03/2002 8:00 p 38.0 38.0 38.0 38.1 37.7 78 31.8 0.0 0.0 --- 0.00 30.012
11/03/2002 8:30 p 36.2 36.2 36.2 37.7 34.9 84 31.8 0.0 0.0 --- 0.00 30.012
11/03/2002 9:00 p 34.3 34.3 34.3 34.9 34.1 86 30.6 0.0 0.0 --- 0.00 30.015
11/03/2002 9:30 p 33.8 33.8 33.8 34.2 33.6 88 30.6 0.0 0.0 --- 0.00 30.015
11/03/2002 10:00 p 34.3 34.3 34.3 34.6 33.8 86 30.6 0.0 0.0 --- 0.00 30.016
11/03/2002 10:30 p 34.3 34.3 34.3 34.5 34.0 86 30.6 0.0 0.0 --- 0.00 30.019
11/03/2002 11:00 p 33.9 33.9 33.9 34.1 33.7 88 30.7 0.0 0.0 --- 0.00 30.012
11/03/2002 11:30 p 33.3 33.3 33.3 33.7 33.0 89 30.4 0.0 0.0 --- 0.00 30.003
11/04/2002 12:00 a 33.5 33.5 33.5 33.6 33.3 90 30.9 0.0 0.0 --- 0.00 30.002
11/04/2002 12:30 a 33.5 33.5 33.5 33.6 33.4 90 30.9 0.0 0.0 --- 0.00 29.992
11/04/2002 1:00 a 33.6 33.6 33.6 33.7 33.5 91 31.3 0.0 0.0 --- 0.00 29.992
11/04/2002 1:30 a 33.9 33.9 33.9 34.1 33.7 90 31.3 0.0 0.0 --- 0.00 29.987
11/04/2002 2:00 a 34.1 34.1 34.1 34.2 34.0 90 31.5 0.0 0.0 --- 0.00 29.981
11/04/2002 2:30 a 34.2 34.2 34.2 34.4 34.0 90 31.6 0.0 0.0 --- 0.00 29.972
11/04/2002 3:00 a 34.2 34.2 34.2 34.3 34.1 90 31.6 0.0 0.0 --- 0.00 29.964
11/04/2002 3:30 a 34.3 34.3 34.3 34.5 34.2 91 32.0 0.0 0.0 --- 0.00 29.972
11/04/2002 4:00 a 34.0 34.0 34.0 34.3 33.7 92 31.9 0.0 0.0 --- 0.00 29.961
11/04/2002 4:30 a 33.2 33.2 33.2 33.7 32.4 92 31.1 0.0 0.0 --- 0.00 29.959
11/04/2002 5:00 a 31.8 31.8 31.8 32.4 31.3 93 30.0 0.0 0.0 --- 0.00 29.962
11/04/2002 5:30 a 31.3 31.3 31.3 31.4 31.2 92 29.3 0.0 0.0 --- 0.00 29.957
11/04/2002 6:00 a 30.9 30.9 30.9 31.2 30.6 93 29.1 0.0 0.0 --- 0.00 29.946
11/04/2002 6:30 a 30.7 30.7 30.7 30.8 30.6 93 28.9 0.0 0.0 --- 0.00 29.942
11/04/2002 7:00 a 30.6 30.6 30.6 31.0 30.4 93 28.8 0.0 0.0 --- 0.00 29.940
11/04/2002 7:30 a 31.8 31.8 31.8 32.7 31.0 93 30.0 0.0 0.0 --- 0.00 29.929
11/04/2002 8:00 a 33.4 33.4 33.4 34.4 32.7 92 31.3 0.0 0.0 --- 0.00 29.932
11/04/2002 8:30 a 37.5 37.5 37.5 39.9 34.4 77 31.0 0.0 0.0 --- 0.00 29.924
11/04/2002 9:00 a 42.1 42.1 42.1 44.3 39.9 72 33.7 0.0 1.0 SSE 0.00 29.914
11/04/2002 9:30 a 46.0 46.0 46.0 47.0 44.3 64 34.5 0.0 1.0 SE 0.00 29.902
11/04/2002 10:00 a 47.8 47.8 47.8 49.1 46.9 62 35.4 0.0 1.0 --- 0.00 29.889
11/04/2002 10:30 a 49.3 49.3 49.3 49.7 48.7 63 37.3 0.0 2.0 ESE 0.00 29.893
11/04/2002 11:00 a 49.1 49.1 49.1 49.5 48.5 61 36.2 0.0 2.0 ESE 0.00 29.882
11/04/2002 11:30 a 50.8 50.8 50.8 51.5 49.5 57 36.1 0.0 2.0 ENE 0.00 29.874
11/04/2002 12:00 p 50.5 50.5 50.5 51.4 49.4 60 37.1 0.0 1.0 --- 0.00 29.866
11/04/2002 12:30 p 48.6 48.6 48.6 49.4 47.9 72 40.0 0.0 0.0 --- 0.00 29.854
11/04/2002 1:00 p 47.6 47.6 47.6 47.9 47.5 68 37.6 0.0 0.0 --- 0.00 29.851
11/04/2002 1:30 p 47.5 47.5 47.5 47.6 47.5 72 38.9 0.0 1.0 --- 0.00 29.839
11/04/2002 2:00 p 47.7 47.7 47.7 47.8 47.5 68 37.7 0.0 0.0 --- 0.00 29.832
11/04/2002 2:30 p 48.3 48.3 48.3 49.2 47.8 67 37.9 0.0 0.0 --- 0.00 29.832
11/04/2002 3:00 p 49.2 49.2 49.2 49.4 49.0 67 38.7 0.0 0.0 --- 0.00 29.838
11/04/2002 3:30 p 48.7 48.7 48.7 49.2 48.2 70 39.4 0.0 0.0 --- 0.00 29.836
11/04/2002 4:00 p 48.0 48.0 48.0 48.2 47.8 71 39.1 0.0 0.0 --- 0.00 29.843
11/04/2002 4:30 p 47.4 47.4 47.4 47.9 46.4 73 39.2 0.0 0.0 --- 0.00 29.844
11/04/2002 5:00 p 45.7 45.7 45.7 46.3 45.2 75 38.2 0.0 0.0 --- 0.00 29.856
11/04/2002 5:30 p 44.7 44.7 44.7 45.3 43.9 73 36.6 0.0 0.0 --- 0.00 29.864
11/04/2002 6:00 p 42.8 42.8 42.8 43.9 41.6 78 36.4 0.0 0.0 --- 0.00 29.879
11/04/2002 6:30 p 40.7 40.7 40.7 41.6 40.1 83 35.9 0.0 0.0 --- 0.00 29.889
11/04/2002 7:00 p 39.4 39.4 39.4 40.1 38.6 88 36.1 0.0 0.0 --- 0.00 29.896
11/04/2002 7:30 p 38.3 38.3 38.3 38.7 37.8 88 35.1 0.0 0.0 --- 0.00 29.907
11/04/2002 8:00 p 37.8 37.8 37.8 38.0 37.7 87 34.3 0.0 0.0 --- 0.00 29.910
11/04/2002 8:30 p 37.7 37.7 37.7 37.9 37.6 87 34.2 0.0 0.0 --- 0.00 29.917
11/04/2002 9:00 p 36.8 36.8 36.8 37.8 35.8 90 34.1 0.0 0.0 --- 0.00 29.917
11/04/2002 9:30 p 36.1 36.1 36.1 36.4 35.7 90 33.5 0.0 1.0 ESE 0.00 29.929
11/04/2002 10:00 p 36.1 36.1 36.1 36.4 35.7 91 33.7 0.0 1.0 --- 0.00 29.936
11/04/2002 10:30 p 35.2 35.2 35.2 35.7 34.7 90 32.6 0.0 0.0 --- 0.00 29.938
11/04/2002 11:00 p 33.7 33.7 33.7 34.7 33.2 92 31.6 0.0 0.0 --- 0.00 29.950
11/04/2002 11:30 p 33.0 33.0 33.0 33.3 32.5 92 30.9 0.0 0.0 --- 0.00 29.955
11/05/2002 12:00 a 32.8 32.8 32.8 33.1 32.3 92 30.7 0.0 0.0 --- 0.00 29.963
11/05/2002 12:30 a 32.1 32.1 32.1 32.3 31.8 92 30.0 0.0 0.0 --- 0.00 29.970
11/05/2002 1:00 a 32.0 32.0 32.0 32.5 31.8 93 30.2 0.0 0.0 --- 0.00 29.980
11/05/2002 1:30 a 33.4 33.4 33.4 34.8 32.5 94 31.9 0.0 2.0 ESE 0.00 29.993
11/05/2002 2:00 a 35.9 35.9 35.9 36.8 34.8 91 33.5 0.0 2.0 ESE 0.00 29.999
11/05/2002 2:30 a 36.5 36.5 36.5 36.9 35.1 90 33.9 0.0 0.0 --- 0.00 30.004
11/05/2002 3:00 a 34.0 34.0 34.0 35.1 33.7 92 31.9 0.0 0.0 --- 0.00 30.015
11/05/2002 3:30 a 33.6 33.6 33.6 33.8 33.4 93 31.8 0.0 0.0 --- 0.00 30.013
11/05/2002 4:00 a 32.7 32.7 32.7 33.4 32.1 93 30.9 0.0 0.0 --- 0.00 30.019
11/05/2002 4:30 a 31.2 31.2 31.2 32.2 30.4 92 29.2 0.0 0.0 --- 0.00 30.026
11/05/2002 5:00 a 29.9 29.9 29.9 30.4 29.4 92 27.9 0.0 0.0 --- 0.00 30.030
11/05/2002 5:30 a 29.2 29.2 29.2 29.4 29.0 92 27.2 0.0 0.0 --- 0.00 30.034
11/05/2002 6:00 a 28.8 28.8 28.8 29.0 28.7 92 26.8 0.0 0.0 --- 0.00 30.040
11/05/2002 6:30 a 28.7 28.7 28.7 28.9 28.5 92 26.7 0.0 0.0 --- 0.00 30.039
11/05/2002 7:00 a 28.9 28.9 28.9 29.2 28.5 92 26.9 0.0 0.0 --- 0.00 30.050
11/05/2002 7:30 a 30.0 30.0 30.0 31.2 29.2 92 28.0 0.0 0.0 --- 0.00 30.055
11/05/2002 8:00 a 34.3 34.3 34.3 37.5 31.2 90 31.7 0.0 0.0 --- 0.00 30.051
11/05/2002 8:30 a 40.4 40.4 40.4 42.3 37.6 78 34.1 1.0 4.0 SE 0.00 30.058
11/05/2002 9:00 a 43.1 43.1 43.1 43.9 42.3 67 32.9 1.0 5.0 SSE 0.00 30.056
11/05/2002 9:30 a 44.7 44.7 44.7 45.5 43.8 60 31.7 1.0 6.0 SSE 0.00 30.050
11/05/2002 10:00 a 46.3 46.3 46.3 47.2 45.5 55 31.0 0.0 4.0 SE 0.00 30.050
11/05/2002 10:30 a 48.0 48.0 48.0 48.9 47.1 53 31.7 0.0 3.0 SE 0.00 30.044
11/05/2002 11:00 a 48.1 48.1 48.1 48.8 47.8 51 30.8 0.0 3.0 ENE 0.00 30.047
11/05/2002 11:30 a 49.2 49.2 49.2 49.5 48.8 50 31.4 0.0 3.0 ESE 0.00 30.037
11/05/2002 12:00 p 50.0 50.0 50.0 51.1 49.0 51 32.6 0.0 3.0 NNE 0.00 30.015
11/05/2002 12:30 p 49.5 49.5 49.5 49.9 49.2 50 31.6 0.0 2.0 NNE 0.00 30.000
11/05/2002 1:00 p 49.4 49.4 49.4 49.9 48.9 48 30.5 0.0 3.0 N 0.00 29.999
11/05/2002 1:30 p 49.1 49.1 49.1 49.4 48.8 50 31.3 0.0 2.0 N 0.00 29.981
11/05/2002 2:00 p 48.5 48.5 48.5 48.8 48.2 49 30.2 0.0 3.0 N 0.00 29.970
11/05/2002 2:30 p 48.1 48.1 48.1 48.3 47.7 56 33.2 1.0 3.0 N 0.00 29.978
11/05/2002 3:00 p 47.3 47.3 47.3 47.7 47.0 57 32.9 1.0 3.0 N 0.00 29.985
11/05/2002 3:30 p 46.8 46.8 46.8 47.1 46.5 61 34.1 0.0 3.0 N 0.00 29.969
11/05/2002 4:00 p 46.3 46.3 46.3 46.5 46.1 63 34.4 0.0 2.0 NNW 0.00 29.959
11/05/2002 4:30 p 45.9 45.9 45.9 46.1 45.7 65 34.8 0.0 2.0 N 0.00 29.945
11/05/2002 5:00 p 45.5 45.5 45.5 45.7 45.4 67 35.2 0.0 2.0 N 0.00 29.950
11/05/2002 5:30 p 45.4 45.4 45.4 45.5 45.4 68 35.5 0.0 3.0 NNW 0.00 29.949
11/05/2002 6:00 p 45.4 45.4 45.4 45.6 45.3 69 35.8 0.0 2.0 NNW 0.00 29.925
11/05/2002 6:30 p 45.5 45.5 45.5 45.7 45.4 73 37.4 0.0 2.0 NNW 0.00 29.903
11/05/2002 7:00 p 44.3 44.3 44.3 45.4 43.5 90 41.6 0.0 3.0 NNW 0.00 29.890
11/05/2002 7:30 p 43.7 43.7 43.7 44.2 43.5 89 40.7 0.0 2.0 N 0.00 29.874
11/05/2002 8:00 p 43.9 43.9 43.9 44.2 43.4 94 42.3 0.0 2.0 N 0.02 29.854
11/05/2002 8:30 p 43.1 43.1 43.1 43.4 43.0 94 41.5 0.0 0.0 --- 0.03 29.816
11/05/2002 9:00 p 43.0 43.0 43.0 43.1 43.0 95 41.7 0.0 0.0 --- 0.01 29.800
11/05/2002 9:30 p 43.3 43.3 43.3 43.5 43.1 95 42.0 0.0 1.0 N 0.01 29.774
11/05/2002 10:00 p 43.9 43.9 43.9 44.1 43.5 95 42.6 0.0 3.0 N 0.01 29.756
11/05/2002 10:30 p 44.2 44.2 44.2 44.3 44.1 95 42.9 0.0 3.0 N 0.02 29.721
11/05/2002 11:00 p 44.5 44.5 44.5 44.8 44.3 96 43.4 0.0 2.0 N 0.04 29.695
11/05/2002 11:30 p 45.1 45.1 45.1 45.5 44.8 96 44.0 0.0 3.0 N 0.04 29.675
11/06/2002 12:00 a 45.8 45.8 45.8 46.2 45.4 96 44.7 0.0 2.0 N 0.05 29.648
11/06/2002 12:30 a 46.5 46.5 46.5 46.9 46.2 96 45.4 0.0 3.0 N 0.04 29.613
11/06/2002 1:00 a 47.0 47.0 47.0 47.3 46.8 97 46.2 0.0 1.0 N 0.05 29.582
11/06/2002 1:30 a 47.5 47.5 47.5 47.8 47.2 96 46.4 0.0 1.0 N 0.03 29.551
11/06/2002 2:00 a 47.8 47.8 47.8 47.9 47.7 97 47.0 0.0 0.0 --- 0.05 29.521
11/06/2002 2:30 a 48.1 48.1 48.1 48.2 47.9 97 47.3 0.0 0.0 --- 0.05 29.485
11/06/2002 3:00 a 48.3 48.3 48.3 48.7 48.2 97 47.5 0.0 3.0 SE 0.04 29.443
11/06/2002 3:30 a 48.8 48.8 48.8 48.8 48.6 97 48.0 0.0 2.0 SE 0.01 29.410
11/06/2002 4:00 a 48.9 48.9 48.9 49.1 48.7 97 48.1 0.0 2.0 SE 0.01 29.380
11/06/2002 4:30 a 48.9 48.9 48.9 49.1 48.5 97 48.1 0.0 1.0 SE 0.00 29.352
11/06/2002 5:00 a 48.3 48.3 48.3 48.5 48.2 97 47.5 0.0 1.0 SE 0.00 29.333
11/06/2002 5:30 a 47.9 47.9 47.9 48.2 47.4 97 47.1 0.0 2.0 SE 0.00 29.330
11/06/2002 6:00 a 47.1 47.1 47.1 47.4 47.0 97 46.3 0.0 4.0 SE 0.00 29.329
11/06/2002 6:30 a 47.2 47.2 47.2 47.3 47.1 97 46.4 0.0 3.0 SE 0.00 29.322
11/06/2002 7:00 a 47.3 47.3 47.3 47.4 47.2 97 46.5 0.0 2.0 SE 0.00 29.330
11/06/2002 7:30 a 47.6 47.6 47.6 47.7 47.4 97 46.8 0.0 4.0 SE 0.00 29.331
11/06/2002 8:00 a 47.8 47.8 47.8 47.9 47.6 97 47.0 0.0 4.0 SE 0.00 29.319
11/06/2002 8:30 a 48.3 48.3 48.3 48.7 47.8 97 47.5 0.0 3.0 SE 0.00 29.334
11/06/2002 9:00 a 48.4 48.4 48.4 48.7 48.1 97 47.6 0.0 3.0 SE 0.00 29.326
11/06/2002 9:30 a 47.9 47.9 47.9 48.2 47.5 97 47.1 0.0 1.0 SE 0.00 29.314
11/06/2002 10:00 a 47.7 47.7 47.7 48.2 47.5 96 46.6 0.0 3.0 SE 0.00 29.284
11/06/2002 10:30 a 48.5 48.5 48.5 48.8 48.2 96 47.4 1.0 5.0 SE 0.00 29.287
11/06/2002 11:00 a 48.5 48.5 48.5 48.8 48.4 95 47.1 1.0 5.0 SE 0.00 29.281
11/06/2002 11:30 a 48.6 48.6 48.6 49.0 48.2 95 47.2 1.0 4.0 SSE 0.00 29.258
11/06/2002 12:00 p 49.5 49.5 49.5 50.6 49.0 94 47.8 1.0 4.0 SSE 0.00 29.244
11/06/2002 12:30 p 50.6 50.6 50.6 51.1 50.4 94 48.9 1.0 6.0 SE 0.00 29.263
11/06/2002 1:00 p 50.0 50.0 50.0 50.6 49.6 93 48.1 2.0 6.0 SSE 0.00 29.261
11/06/2002 1:30 p 49.6 49.6 49.6 49.8 49.5 92 47.4 1.0 6.0 S 0.00 29.244
11/06/2002 2:00 p 49.3 49.3 49.3 49.5 49.2 93 47.4 1.0 5.0 SE 0.00 29.244
11/06/2002 2:30 p 49.5 49.5 49.5 49.7 49.3 92 47.3 1.0 10.0 SSE 0.00 29.248
11/06/2002 3:00 p 49.8 49.8 49.8 50.0 49.7 92 47.6 1.0 6.0 SSE 0.00 29.250
11/06/2002 3:30 p 49.7 49.7 49.7 49.9 49.6 90 46.9 1.0 7.0 S 0.00 29.267
11/06/2002 4:00 p 49.6 49.6 49.6 49.8 49.3 85 45.3 2.0 10.0 SE 0.00 29.291
11/06/2002 4:30 p 49.1 49.1 49.1 49.3 48.8 83 44.2 2.0 10.0 SSW 0.00 29.311
11/06/2002 5:00 p 48.0 48.0 48.0 48.8 47.6 81 42.5 2.0 10.0 SSE 0.00 29.331
11/06/2002 5:30 p 47.5 47.5 47.5 47.6 47.3 80 41.6 3.0 16.0 SSE 0.00 29.361
11/06/2002 6:00 p 47.2 47.2 47.2 47.4 47.0 76 40.0 2.0 11.0 SSE 0.00 29.377
11/06/2002 6:30 p 46.8 46.8 46.8 47.1 46.6 74 39.0 2.0 9.0 S 0.00 29.399
11/06/2002 7:00 p 46.2 46.2 46.2 46.6 45.7 69 36.6 2.0 13.0 SSE 0.00 29.417
11/06/2002 7:30 p 45.2 45.2 45.2 45.7 44.6 70 36.0 2.0 11.0 SSE 0.00 29.432
11/06/2002 8:00 p 44.1 44.1 44.1 44.6 43.9 70 35.0 3.0 12.0 SSE 0.00 29.452
11/06/2002 8:30 p 43.7 43.7 43.7 43.9 43.6 68 33.8 3.0 13.0 SSE 0.00 29.459
11/06/2002 9:00 p 43.5 43.5 43.5 43.6 43.4 65 32.5 3.0 10.0 SSE 0.00 29.476
11/06/2002 9:30 p 43.1 43.1 43.1 43.4 42.7 66 32.5 3.0 12.0 SE 0.00 29.492
11/06/2002 10:00 p 42.7 42.7 42.7 42.8 42.4 64 31.4 2.0 9.0 SSE 0.00 29.511
11/06/2002 10:30 p 42.2 42.2 42.2 42.4 41.9 66 31.7 1.0 7.0 SSE 0.00 29.524
11/06/2002 11:00 p 42.1 42.1 42.1 42.3 42.0 67 31.9 2.0 8.0 SE 0.00 29.534
11/06/2002 11:30 p 42.0 42.0 42.0 42.2 41.8 67 31.9 1.0 7.0 SSE 0.00 29.536
11/07/2002 12:00 a 41.9 41.9 41.9 42.0 41.7 68 32.1 1.0 5.0 S 0.00 29.542
11/07/2002 12:30 a 41.0 41.0 41.0 41.6 40.2 71 32.3 0.0 2.0 SE 0.00 29.547
11/07/2002 1:00 a 39.6 39.6 39.6 40.2 39.2 76 32.7 0.0 2.0 E 0.00 29.550
11/07/2002 1:30 a 39.8 39.8 39.8 40.7 39.2 72 31.5 1.0 5.0 SSE 0.00 29.565
11/07/2002 2:00 a 40.4 40.4 40.4 40.8 39.5 76 33.4 0.0 3.0 SSE 0.00 29.573
11/07/2002 2:30 a 38.8 38.8 38.8 39.5 38.2 81 33.5 0.0 0.0 --- 0.00 29.573
11/07/2002 3:00 a 38.0 38.0 38.0 38.2 37.7 81 32.7 0.0 0.0 --- 0.00 29.583
11/07/2002 3:30 a 38.3 38.3 38.3 38.4 38.1 81 33.0 0.0 1.0 ESE 0.00 29.591
11/07/2002 4:00 a 38.6 38.6 38.6 38.7 38.4 81 33.3 0.0 1.0 ESE 0.00 29.608
11/07/2002 4:30 a 38.2 38.2 38.2 38.4 38.0 81 32.9 0.0 0.0 --- 0.00 29.620
11/07/2002 5:00 a 38.1 38.1 38.1 38.3 37.9 81 32.8 0.0 0.0 --- 0.00 29.639
11/07/2002 5:30 a 39.0 39.0 39.0 39.6 38.2 81 33.7 0.0 0.0 --- 0.00 29.658
11/07/2002 6:00 a 39.6 39.6 39.6 39.8 39.4 78 33.3 0.0 2.0 ESE 0.00 29.660
11/07/2002 6:30 a 40.6 40.6 40.6 41.5 39.8 74 33.0 0.0 3.0 NE 0.00 29.674
11/07/2002 7:00 a 42.0 42.0 42.0 42.6 41.5 71 33.3 0.0 3.0 SE 0.00 29.692
11/07/2002 7:30 a 43.0 43.0 43.0 43.4 42.5 69 33.5 0.0 4.0 SSE 0.00 29.718
11/07/2002 8:00 a 43.4 43.4 43.4 44.0 43.3 69 33.9 0.0 4.0 SSE 0.00 29.741
11/07/2002 8:30 a 44.4 44.4 44.4 44.5 44.0 71 35.6 0.0 3.0 SE 0.00 29.769
11/07/2002 9:00 a 44.9 44.9 44.9 45.7 44.0 52 28.4 2.0 11.0 SSE 0.00 29.789
11/07/2002 9:30 a 45.7 45.7 45.7 46.3 45.4 46 26.1 2.0 9.0 SE 0.00 29.812
11/07/2002 10:00 a 45.3 45.3 45.3 45.7 45.1 36 19.9 2.0 10.0 SSE 0.00 29.828
11/07/2002 10:30 a 45.7 45.7 45.7 46.4 45.1 34 19.0 2.0 11.0 S 0.00 29.837
11/07/2002 11:00 a 45.6 45.6 45.6 46.7 45.3 29 15.2 3.0 12.0 SSE 0.00 29.846
11/07/2002 11:30 a 46.9 46.9 46.9 47.5 46.5 27 14.7 3.0 14.0 SSE 0.00 29.857
11/07/2002 12:00 p 53.1 53.1 53.1 55.3 47.3 24 17.3 3.0 13.0 SSE 0.00 29.854
11/07/2002 12:30 p 48.3 48.3 48.3 53.0 46.9 25 14.1 3.0 9.0 SSE 0.00 29.860
11/07/2002 1:00 p 47.0 47.0 47.0 47.2 46.9 25 13.0 2.0 8.0 SSE 0.00 29.866
11/07/2002 1:30 p 47.0 47.0 47.0 47.3 46.6 23 11.1 2.0 7.0 SSE 0.00 29.872
11/07/2002 2:00 p 46.2 46.2 46.2 46.6 45.8 24 11.4 2.0 10.0 SSE 0.00 29.878
11/07/2002 2:30 p 45.8 45.8 45.8 46.0 45.6 21 8.1 2.0 8.0 SSE 0.00 29.889
11/07/2002 3:00 p 45.1 45.1 45.1 45.6 44.7 21 7.5 2.0 11.0 SE 0.00 29.890
11/07/2002 3:30 p 44.3 44.3 44.3 44.7 43.9 22 7.9 1.0 8.0 SE 0.00 29.897
11/07/2002 4:00 p 43.6 43.6 43.6 43.9 43.5 24 9.2 1.0 5.0 SE 0.00 29.924
11/07/2002 4:30 p 42.3 42.3 42.3 43.5 41.5 27 10.7 0.0 3.0 SSE 0.00 29.932
11/07/2002 5:00 p 40.5 40.5 40.5 41.5 39.4 32 13.0 0.0 3.0 NE 0.00 29.951
11/07/2002 5:30 p 38.4 38.4 38.4 39.3 37.9 33 11.8 0.0 1.0 --- 0.00 29.970
11/07/2002 6:00 p 37.8 37.8 37.8 38.4 37.0 33 11.3 0.0 3.0 SE 0.00 29.985
11/07/2002 6:30 p 36.9 36.9 36.9 37.9 35.5 44 17.0 0.0 1.0 SE 0.00 29.993
11/07/2002 7:00 p 34.8 34.8 34.8 35.5 34.1 51 18.5 0.0 0.0 --- 0.00 29.996
11/07/2002 7:30 p 32.4 32.4 32.4 34.1 31.2 54 17.6 0.0 0.0 --- 0.00 29.992
11/07/2002 8:00 p 30.8 30.8 30.8 31.2 30.4 63 19.7 0.0 0.0 --- 0.00 29.995
11/07/2002 8:30 p 29.5 29.5 29.5 30.4 29.0 65 19.2 0.0 0.0 --- 0.00 30.007
11/07/2002 9:00 p 28.5 28.5 28.5 29.1 28.2 70 20.0 0.0 0.0 --- 0.00 30.018
11/07/2002 9:30 p 28.1 28.1 28.1 28.4 27.7 76 21.5 0.0 0.0 --- 0.00 30.010
11/07/2002 10:00 p 27.7 27.7 27.7 27.8 27.5 78 21.7 0.0 0.0 --- 0.00 30.005
11/07/2002 10:30 p 27.3 27.3 27.3 27.5 27.2 79 21.7 0.0 0.0 --- 0.00 30.019
11/07/2002 11:00 p 27.2 27.2 27.2 27.5 26.9 81 22.2 0.0 0.0 --- 0.00 30.013
11/07/2002 11:30 p 27.0 27.0 27.0 27.1 26.8 82 22.2 0.0 0.0 --- 0.00 30.009
11/08/2002 12:00 a 27.2 27.2 27.2 27.8 26.9 82 22.4 0.0 0.0 --- 0.00 30.002
11/08/2002 12:30 a 28.8 28.8 28.8 29.7 27.8 79 23.1 0.0 0.0 --- 0.00 30.001
11/08/2002 1:00 a 30.3 30.3 30.3 30.8 29.7 77 24.0 0.0 0.0 --- 0.00 30.001
11/08/2002 1:30 a 31.4 31.4 31.4 31.9 30.8 74 24.1 0.0 0.0 --- 0.00 29.989
11/08/2002 2:00 a 31.8 31.8 31.8 31.9 31.6 78 25.7 0.0 0.0 --- 0.00 29.988
11/08/2002 2:30 a 32.0 32.0 32.0 32.4 31.7 76 25.3 0.0 0.0 --- 0.00 29.981
11/08/2002 3:00 a 32.5 32.5 32.5 32.7 32.0 76 25.8 0.0 0.0 --- 0.00 29.978
11/08/2002 3:30 a 31.4 31.4 31.4 32.0 30.9 76 24.7 0.0 0.0 --- 0.00 29.978
11/08/2002 4:00 a 30.4 30.4 30.4 30.9 30.1 77 24.1 0.0 0.0 --- 0.00 29.980
11/08/2002 4:30 a 29.7 29.7 29.7 30.1 29.2 82 24.9 0.0 0.0 --- 0.00 29.991
11/08/2002 5:00 a 28.9 28.9 28.9 29.2 28.8 84 24.7 0.0 0.0 --- 0.00 29.988
11/08/2002 5:30 a 29.0 29.0 29.0 29.1 28.9 86 25.3 0.0 0.0 --- 0.00 29.988
11/08/2002 6:00 a 28.6 28.6 28.6 28.9 28.3 88 25.5 0.0 0.0 --- 0.00 29.996
11/08/2002 6:30 a 28.3 28.3 28.3 28.5 28.2 89 25.5 0.0 0.0 --- 0.00 29.999
11/08/2002 7:00 a 29.1 29.1 29.1 29.9 28.5 88 26.0 0.0 0.0 --- 0.00 29.998
11/08/2002 7:30 a 31.0 31.0 31.0 32.7 29.9 87 27.6 0.0 0.0 --- 0.00 30.001
11/08/2002 8:00 a 37.3 37.3 37.3 41.4 32.7 74 29.8 0.0 0.0 --- 0.00 30.005
11/08/2002 8:30 a 41.8 41.8 41.8 42.6 41.1 75 34.5 0.0 2.0 ESE 0.00 30.001
11/08/2002 9:00 a 43.5 43.5 43.5 44.3 42.4 74 35.8 0.0 3.0 SE 0.00 29.994
11/08/2002 9:30 a 45.8 45.8 45.8 46.7 44.3 69 36.2 0.0 4.0 SE 0.00 29.986
11/08/2002 10:00 a 47.7 47.7 47.7 48.7 46.7 64 36.1 1.0 5.0 S 0.00 29.979
11/08/2002 10:30 a 50.0 50.0 50.0 51.0 48.7 60 36.7 1.0 4.0 S 0.00 29.967
11/08/2002 11:00 a 52.2 52.2 52.2 53.2 51.0 56 37.0 0.0 4.0 S 0.00 29.958
11/08/2002 11:30 a 55.9 55.9 55.9 62.0 53.3 39 31.3 0.0 3.0 SSE 0.00 29.932
11/08/2002 12:00 p 65.5 65.5 65.5 67.3 62.0 35 37.1 0.0 3.0 SSW 0.00 29.914
11/08/2002 12:30 p 59.7 59.7 59.7 64.8 58.2 45 38.3 0.0 3.0 NNW 0.00 29.898
11/08/2002 1:00 p 58.3 58.3 58.3 58.5 58.2 44 36.5 0.0 4.0 N 0.00 29.888
11/08/2002 1:30 p 58.5 58.5 58.5 58.7 58.4 43 36.1 0.0 3.0 S 0.00 29.875
11/08/2002 2:00 p 59.0 59.0 59.0 59.1 58.7 41 35.4 0.0 4.0 S 0.00 29.868
11/08/2002 2:30 p 58.9 58.9 58.9 59.1 58.7 42 35.9 1.0 3.0 S 0.00 29.862
11/08/2002 3:00 p 58.3 58.3 58.3 58.7 57.9 45 37.1 0.0 3.0 SSE 0.00 29.864
11/08/2002 3:30 p 57.2 57.2 57.2 57.9 56.6 47 37.2 0.0 2.0 N 0.00 29.867
11/08/2002 4:00 p 56.6 56.6 56.6 57.0 55.9 48 37.2 0.0 2.0 W 0.00 29.860
11/08/2002 4:30 p 55.6 55.6 55.6 56.0 54.4 52 38.3 0.0 3.0 S 0.00 29.858
11/08/2002 5:00 p 53.3 53.3 53.3 54.4 52.2 58 38.9 0.0 0.0 --- 0.00 29.856
11/08/2002 5:30 p 50.9 50.9 50.9 52.2 49.7 63 38.8 0.0 0.0 --- 0.00 29.862
11/08/2002 6:00 p 48.7 48.7 48.7 49.7 47.8 67 38.2 0.0 0.0 --- 0.00 29.872
11/08/2002 6:30 p 47.1 47.1 47.1 47.8 46.8 71 38.2 0.0 0.0 --- 0.00 29.879
11/08/2002 7:00 p 46.6 46.6 46.6 47.1 46.4 72 38.1 0.0 0.0 --- 0.00 29.882
11/08/2002 7:30 p 47.0 47.0 47.0 47.2 46.9 73 38.8 0.0 0.0 --- 0.00 29.887
11/08/2002 8:00 p 46.8 46.8 46.8 46.9 46.5 73 38.6 0.0 0.0 --- 0.00 29.884
11/08/2002 8:30 p 46.3 46.3 46.3 46.6 46.0 75 38.8 0.0 0.0 --- 0.00 29.889
11/08/2002 9:00 p 45.5 45.5 45.5 46.1 44.8 78 39.1 0.0 0.0 --- 0.00 29.893
11/08/2002 9:30 p 43.9 43.9 43.9 44.9 43.1 81 38.5 0.0 0.0 --- 0.00 29.897
11/08/2002 10:00 p 42.4 42.4 42.4 43.1 41.8 85 38.2 0.0 0.0 --- 0.00 29.895
11/08/2002 10:30 p 41.6 41.6 41.6 41.8 41.1 88 38.3 0.0 0.0 --- 0.00 29.901
11/08/2002 11:00 p 41.0 41.0 41.0 41.1 40.8 88 37.7 0.0 0.0 --- 0.00 29.891
11/08/2002 11:30 p 39.9 39.9 39.9 40.8 39.3 91 37.5 0.0 0.0 --- 0.00 29.901
11/09/2002 12:00 a 38.9 38.9 38.9 39.3 38.5 92 36.8 0.0 0.0 --- 0.00 29.902
11/09/2002 12:30 a 38.1 38.1 38.1 38.5 37.8 92 36.0 0.0 0.0 --- 0.00 29.902
11/09/2002 1:00 a 37.5 37.5 37.5 37.9 37.1 92 35.4 0.0 0.0 --- 0.00 29.901
11/09/2002 1:30 a 36.7 36.7 36.7 37.1 36.5 93 34.9 0.0 0.0 --- 0.00 29.903
11/09/2002 2:00 a 36.8 36.8 36.8 36.9 36.5 93 35.0 0.0 0.0 --- 0.00 29.904
11/09/2002 2:30 a 36.5 36.5 36.5 36.8 36.4 94 34.9 0.0 0.0 --- 0.00 29.909
11/09/2002 3:00 a 36.4 36.4 36.4 36.6 36.2 93 34.6 0.0 0.0 --- 0.00 29.905
11/09/2002 3:30 a 36.5 36.5 36.5 36.9 36.2 94 34.9 0.0 0.0 --- 0.00 29.907
11/09/2002 4:00 a 36.9 36.9 36.9 37.0 36.8 93 35.1 0.0 0.0 --- 0.00 29.906
11/09/2002 4:30 a 36.6 36.6 36.6 36.8 36.5 94 35.0 0.0 0.0 --- 0.00 29.908
11/09/2002 5:00 a 36.8 36.8 36.8 36.9 36.6 94 35.2 0.0 0.0 --- 0.00 29.904
11/09/2002 5:30 a 36.8 36.8 36.8 37.0 36.6 94 35.2 0.0 0.0 --- 0.00 29.905
11/09/2002 6:00 a 36.4 36.4 36.4 36.6 36.1 93 34.6 0.0 0.0 --- 0.00 29.907
11/09/2002 6:30 a 35.8 35.8 35.8 36.2 35.4 93 34.0 0.0 0.0 --- 0.00 29.916
11/09/2002 7:00 a 35.4 35.4 35.4 35.6 35.0 93 33.6 0.0 0.0 --- 0.00 29.918
11/09/2002 7:30 a 36.1 36.1 36.1 37.7 35.3 94 34.5 0.0 0.0 --- 0.00 29.929
11/09/2002 8:00 a 40.9 40.9 40.9 42.2 37.7 93 39.0 0.0 0.0 --- 0.00 29.931
11/09/2002 8:30 a 43.4 43.4 43.4 44.6 42.2 93 41.5 0.0 0.0 --- 0.00 29.935
11/09/2002 9:00 a 46.9 46.9 46.9 48.7 44.6 89 43.8 0.0 1.0 S 0.00 29.936
11/09/2002 9:30 a 50.1 50.1 50.1 50.8 48.7 84 45.5 0.0 1.0 S 0.00 29.930
11/09/2002 10:00 a 51.7 51.7 51.7 52.8 50.7 76 44.4 0.0 2.0 S 0.00 29.930
11/09/2002 10:30 a 54.3 54.3 54.3 55.1 52.8 69 44.4 0.0 1.0 --- 0.00 29.917
11/09/2002 11:00 a 54.9 54.9 54.9 55.3 54.5 67 44.2 0.0 2.0 NNE 0.00 29.908
11/09/2002 11:30 a 57.6 57.6 57.6 62.9 55.0 50 39.1 0.0 3.0 SE 0.00 29.888
11/09/2002 12:00 p 63.0 63.0 63.0 64.9 61.9 50 44.1 0.0 1.0 SSE 0.00 29.869
11/09/2002 12:30 p 60.3 60.3 60.3 63.5 59.2 57 45.0 0.0 2.0 SSE 0.00 29.860
11/09/2002 1:00 p 60.3 60.3 60.3 61.0 59.3 55 44.1 0.0 2.0 SE 0.00 29.846
11/09/2002 1:30 p 61.3 61.3 61.3 61.8 60.9 55 45.0 0.0 3.0 SE 0.00 29.830
11/09/2002 2:00 p 62.0 62.0 62.0 62.8 61.3 52 44.2 0.0 3.0 S 0.00 29.824
11/09/2002 2:30 p 62.1 62.1 62.1 62.7 61.5 53 44.8 0.0 2.0 N 0.00 29.824
11/09/2002 3:00 p 61.2 61.2 61.2 61.5 61.0 54 44.4 0.0 3.0 WSW 0.00 29.821
11/09/2002 3:30 p 60.8 60.8 60.8 61.2 60.6 56 45.0 0.0 2.0 W 0.00 29.823
11/09/2002 4:00 p 60.2 60.2 60.2 60.9 59.3 58 45.4 0.0 1.0 W 0.00 29.826
11/09/2002 4:30 p 58.1 58.1 58.1 59.3 56.6 64 46.0 0.0 0.0 --- 0.00 29.833
11/09/2002 5:00 p 55.2 55.2 55.2 56.6 53.8 70 45.6 0.0 0.0 --- 0.00 29.829
11/09/2002 5:30 p 52.6 52.6 52.6 53.8 51.9 75 44.9 0.0 0.0 --- 0.00 29.823
11/09/2002 6:00 p 51.6 51.6 51.6 51.9 51.2 77 44.6 0.0 0.0 --- 0.00 29.845
11/09/2002 6:30 p 51.0 51.0 51.0 51.2 50.8 79 44.7 0.0 0.0 --- 0.00 29.841
11/09/2002 7:00 p 50.3 50.3 50.3 50.8 49.9 82 45.0 0.0 0.0 --- 0.00 29.857
11/09/2002 7:30 p 49.6 49.6 49.6 49.9 49.3 83 44.7 0.0 0.0 --- 0.00 29.842
11/09/2002 8:00 p 49.2 49.2 49.2 49.3 49.0 85 44.9 0.0 0.0 --- 0.00 29.843
11/09/2002 8:30 p 49.3 49.3 49.3 49.4 49.0 85 45.0 0.0 0.0 --- 0.00 29.849
11/09/2002 9:00 p 48.9 48.9 48.9 49.1 48.7 86 44.9 0.0 0.0 --- 0.00 29.856
11/09/2002 9:30 p 48.5 48.5 48.5 48.7 48.2 87 44.8 0.0 0.0 --- 0.00 29.852
11/09/2002 10:00 p 48.3 48.3 48.3 48.4 48.2 87 44.6 0.0 0.0 --- 0.00 29.849
11/09/2002 10:30 p 48.5 48.5 48.5 48.7 48.3 88 45.1 0.0 0.0 --- 0.00 29.842
11/09/2002 11:00 p 47.9 47.9 47.9 48.3 47.7 90 45.1 0.0 0.0 --- 0.00 29.846
11/09/2002 11:30 p 47.3 47.3 47.3 47.7 46.9 91 44.8 0.0 0.0 --- 0.00 29.843
11/10/2002 12:00 a 46.8 46.8 46.8 47.0 46.6 92 44.6 0.0 0.0 --- 0.00 29.838
11/10/2002 12:30 a 46.1 46.1 46.1 46.6 45.7 94 44.5 0.0 0.0 --- 0.00 29.832
11/10/2002 1:00 a 45.6 45.6 45.6 45.8 45.1 94 44.0 0.0 0.0 --- 0.00 29.828
11/10/2002 1:30 a 44.6 44.6 44.6 45.1 44.1 94 43.0 0.0 0.0 --- 0.00 29.823
11/10/2002 2:00 a 44.3 44.3 44.3 44.4 44.0 94 42.7 0.0 0.0 --- 0.00 29.822
11/10/2002 2:30 a 43.8 43.8 43.8 44.0 43.7 94 42.2 0.0 0.0 --- 0.00 29.817
11/10/2002 3:00 a 44.4 44.4 44.4 44.7 43.9 94 42.8 0.0 0.0 --- 0.00 29.808
11/10/2002 3:30 a 44.9 44.9 44.9 45.1 44.7 94 43.3 0.0 0.0 --- 0.00 29.798
11/10/2002 4:00 a 44.9 44.9 44.9 45.1 44.7 94 43.3 0.0 0.0 --- 0.00 29.797
11/10/2002 4:30 a 45.4 45.4 45.4 45.8 44.9 94 43.8 0.0 0.0 --- 0.00 29.804
11/10/2002 5:00 a 44.9 44.9 44.9 45.8 44.2 94 43.3 0.0 0.0 --- 0.00 29.789
11/10/2002 5:30 a 44.5 44.5 44.5 44.6 44.3 95 43.2 0.0 0.0 --- 0.00 29.786
11/10/2002 6:00 a 44.9 44.9 44.9 45.4 44.4 95 43.6 0.0 0.0 --- 0.00 29.787
11/10/2002 6:30 a 45.5 45.5 45.5 46.0 45.3 94 43.9 0.0 0.0 --- 0.00 29.790
11/10/2002 7:00 a 46.8 46.8 46.8 47.6 46.1 93 44.9 0.0 0.0 --- 0.00 29.790
11/10/2002 7:30 a 48.5 48.5 48.5 49.5 47.6 93 46.6 0.0 0.0 --- 0.00 29.790
11/10/2002 8:00 a 51.1 51.1 51.1 53.4 49.5 89 48.0 0.0 2.0 W 0.00 29.788
11/10/2002 8:30 a 56.5 56.5 56.5 58.6 53.4 83 51.4 0.0 1.0 W 0.00 29.785
11/10/2002 9:00 a 59.8 59.8 59.8 60.9 58.6 78 52.9 0.0 1.0 --- 0.00 29.775
11/10/2002 9:30 a 61.1 61.1 61.1 61.2 60.9 76 53.5 0.0 2.0 WNW 0.00 29.773
11/10/2002 10:00 a 60.7 60.7 60.7 61.2 60.1 84 55.8 0.0 3.0 N 0.00 29.762
11/10/2002 10:30 a 60.8 60.8 60.8 62.0 60.4 81 54.9 0.0 3.0 NNW 0.00 29.750
11/10/2002 11:00 a 65.7 65.7 65.7 67.9 62.0 67 54.5 0.0 5.0 N 0.00 29.723
11/10/2002 11:30 a 68.6 69.8 69.8 74.8 67.9 53 51.9 0.0 5.0 SW 0.00 29.713
11/10/2002 12:00 p 75.0 75.4 75.4 77.5 73.6 58 59.6 1.0 5.0 N 0.00 29.698
11/10/2002 12:30 p 71.0 70.9 70.9 73.6 70.0 66 59.0 1.0 4.0 NNW 0.00 29.675
11/10/2002 1:00 p 71.0 71.2 71.2 72.5 70.4 64 58.4 1.0 4.0 NNW 0.00 29.662
11/10/2002 1:30 p 72.0 72.2 72.2 72.6 71.6 64 59.4 1.0 4.0 N 0.00 29.644
11/10/2002 2:00 p 72.0 71.5 71.5 71.8 71.1 64 58.7 0.0 3.0 NW 0.00 29.627
11/10/2002 2:30 p 71.0 70.8 70.8 71.2 70.6 66 58.9 0.0 3.0 N 0.00 29.633
11/10/2002 3:00 p 71.2 70.5 70.5 71.3 69.8 71 60.7 0.0 4.0 N 0.00 29.623
11/10/2002 3:30 p 71.0 68.8 68.8 69.9 67.3 85 64.1 0.0 3.0 N 0.00 29.634
11/10/2002 4:00 p 66.1 66.1 66.1 67.2 65.1 91 63.4 0.0 2.0 NNW 0.00 29.641
11/10/2002 4:30 p 65.5 65.5 65.5 65.9 65.1 87 61.5 0.0 2.0 NNW 0.00 29.640
11/10/2002 5:00 p 65.5 65.5 65.5 65.9 65.2 86 61.2 0.0 1.0 NNW 0.00 29.644
11/10/2002 5:30 p 65.8 65.8 65.8 66.1 65.6 83 60.5 0.0 2.0 NNW 0.00 29.644
11/10/2002 6:00 p 65.8 65.8 65.8 66.0 65.4 84 60.8 0.0 3.0 NNE 0.00 29.651
11/10/2002 6:30 p 65.1 65.1 65.1 65.5 64.3 85 60.5 0.0 2.0 N 0.00 29.650
11/10/2002 7:00 p 64.3 64.3 64.3 64.4 64.1 83 59.0 0.0 1.0 --- 0.00 29.645
11/10/2002 7:30 p 64.3 64.3 64.3 64.5 63.8 83 59.0 0.0 2.0 N 0.00 29.637
11/10/2002 8:00 p 63.2 63.2 63.2 63.9 62.0 88 59.6 0.0 1.0 --- 0.00 29.621
11/10/2002 8:30 p 62.0 62.0 62.0 62.2 61.8 88 58.4 0.0 1.0 --- 0.00 29.616
11/10/2002 9:00 p 62.8 62.8 62.8 63.6 62.1 85 58.2 0.0 2.0 NNE 0.00 29.617
11/10/2002 9:30 p 64.7 64.7 64.7 65.4 63.6 81 58.7 0.0 3.0 ENE 0.00 29.625
11/10/2002 10:00 p 65.6 65.6 65.6 65.8 65.4 81 59.6 0.0 2.0 SSE 0.00 29.631
11/10/2002 10:30 p 65.9 65.9 65.9 66.2 65.7 81 59.9 0.0 4.0 N 0.00 29.625
11/10/2002 11:00 p 65.3 65.3 65.3 66.2 64.9 86 61.0 0.0 3.0 NNE 0.00 29.611
11/10/2002 11:30 p 64.4 64.4 64.4 64.9 64.1 87 60.5 0.0 2.0 NNE 0.00 29.604
11/11/2002 12:00 a 64.4 64.4 64.4 64.7 63.9 88 60.8 0.0 3.0 N 0.00 29.581
11/11/2002 12:30 a 63.6 63.6 63.6 64.1 63.3 87 59.7 0.0 2.0 N 0.00 29.578
11/11/2002 1:00 a 63.8 63.8 63.8 64.3 63.3 89 60.5 0.0 2.0 SSW 0.00 29.563
11/11/2002 1:30 a 63.4 63.4 63.4 63.7 63.2 90 60.4 0.0 3.0 N 0.00 29.558
11/11/2002 2:00 a 64.2 64.2 64.2 65.0 63.7 88 60.6 0.0 3.0 S 0.00 29.556
11/11/2002 2:30 a 65.0 65.0 65.0 65.1 65.0 87 61.0 0.0 2.0 S 0.00 29.555
11/11/2002 3:00 a 65.1 65.1 65.1 65.2 64.9 87 61.1 0.0 2.0 N 0.00 29.580
11/11/2002 3:30 a 65.1 65.1 65.1 65.2 64.9 87 61.1 0.0 1.0 W 0.00 29.579
11/11/2002 4:00 a 65.1 65.1 65.1 65.2 65.0 88 61.5 0.0 2.0 W 0.00 29.573
11/11/2002 4:30 a 65.2 65.2 65.2 65.4 65.0 88 61.6 0.0 2.0 W 0.00 29.581
11/11/2002 5:00 a 65.5 65.5 65.5 65.7 65.3 87 61.5 0.0 2.0 SSE 0.00 29.582
11/11/2002 5:30 a 66.0 66.0 66.0 66.2 65.7 87 62.0 0.0 3.0 NW 0.00 29.578
11/11/2002 6:00 a 66.3 66.3 66.3 66.4 66.2 87 62.3 0.0 2.0 NW 0.01 29.584
11/11/2002 6:30 a 66.5 66.5 66.5 66.5 66.4 87 62.5 0.0 2.0 NNE 0.00 29.599
11/11/2002 7:00 a 66.6 66.6 66.6 66.8 66.4 86 62.3 0.0 2.0 SSE 0.00 29.608
11/11/2002 7:30 a 66.8 66.8 66.8 66.9 66.7 86 62.5 0.0 2.0 NNE 0.00 29.610
11/11/2002 8:00 a 67.2 67.2 67.2 67.5 66.9 85 62.5 0.0 3.0 E 0.00 29.619
11/11/2002 8:30 a 67.3 67.3 67.3 67.9 66.2 92 64.9 0.0 3.0 NNW 0.00 29.612
11/11/2002 9:00 a 65.8 65.8 65.8 66.2 65.6 95 64.3 0.0 2.0 NNW 0.00 29.619
11/11/2002 9:30 a 65.4 65.4 65.4 65.6 65.3 96 64.2 0.0 1.0 --- 0.00 29.610
11/11/2002 10:00 a 65.8 65.8 65.8 66.0 65.4 95 64.3 0.0 2.0 N 0.01 29.619
11/11/2002 10:30 a 66.1 66.1 66.1 66.5 66.0 95 64.6 0.0 3.0 N 0.00 29.601
11/11/2002 11:00 a 67.3 67.3 67.3 67.8 66.5 93 65.2 0.0 3.0 SW 0.00 29.612
11/11/2002 11:30 a 67.0 67.0 67.0 67.5 66.3 95 65.5 0.0 4.0 N 0.00 29.617
11/11/2002 12:00 p 66.1 66.1 66.1 66.3 65.7 96 64.9 0.0 2.0 N 0.01 29.615
11/11/2002 12:30 p 66.1 66.1 66.1 66.5 65.7 96 64.9 0.0 1.0 N 0.01 29.633
11/11/2002 1:00 p 66.1 66.1 66.1 66.5 65.9 96 64.9 0.0 4.0 N 0.01 29.615
11/11/2002 1:30 p 66.0 66.0 66.0 66.0 65.9 96 64.8 0.0 1.0 SW 0.00 29.606
11/11/2002 2:00 p 65.8 65.8 65.8 65.9 65.7 96 64.6 0.0 1.0 SW 0.00 29.610
11/11/2002 2:30 p 66.2 66.2 66.2 66.3 65.9 97 65.3 0.0 1.0 --- 0.00 29.617
11/11/2002 3:00 p 66.6 66.6 66.6 66.8 66.3 96 65.4 0.0 1.0 SW 0.00 29.646
11/11/2002 3:30 p 66.3 66.3 66.3 66.5 66.2 96 65.1 0.0 2.0 S 0.00 29.659
11/11/2002 4:00 p 65.8 65.8 65.8 66.2 65.3 96 64.6 0.0 1.0 --- 0.00 29.681
11/11/2002 4:30 p 65.4 65.4 65.4 65.4 65.3 96 64.2 0.0 0.0 --- 0.00 29.708
11/11/2002 5:00 p 64.6 64.6 64.6 65.3 63.9 96 63.4 0.0 0.0 --- 0.00 29.730
11/11/2002 5:30 p 63.1 63.1 63.1 63.9 62.6 97 62.2 0.0 0.0 --- 0.00 29.748
11/11/2002 6:00 p 62.5 62.5 62.5 62.6 62.3 97 61.6 0.0 0.0 --- 0.00 29.756
11/11/2002 6:30 p 62.1 62.1 62.1 62.3 61.8 97 61.2 0.0 0.0 --- 0.00 29.770
11/11/2002 7:00 p 61.3 61.3 61.3 61.8 60.8 97 60.4 0.0 0.0 --- 0.00 29.784
11/11/2002 7:30 p 60.8 60.8 60.8 61.1 60.1 97 59.9 0.0 0.0 --- 0.00 29.785
11/11/2002 8:00 p 59.4 59.4 59.4 60.1 58.6 96 58.3 0.0 0.0 --- 0.00 29.807
11/11/2002 8:30 p 58.8 58.8 58.8 59.4 58.2 97 58.0 0.0 0.0 --- 0.00 29.820
11/11/2002 9:00 p 58.7 58.7 58.7 59.1 58.4 97 57.9 0.0 0.0 --- 0.00 29.827
11/11/2002 9:30 p 58.4 58.4 58.4 58.7 58.1 97 57.6 0.0 0.0 --- 0.00 29.835
11/11/2002 10:00 p 57.5 57.5 57.5 58.5 56.4 96 56.4 0.0 0.0 --- 0.00 29.850
11/11/2002 10:30 p 55.8 55.8 55.8 56.4 55.2 96 54.7 0.0 0.0 --- 0.00 29.859
11/11/2002 11:00 p 54.7 54.7 54.7 55.3 54.5 97 53.9 0.0 0.0 --- 0.00 29.870
11/11/2002 11:30 p 54.2 54.2 54.2 54.5 53.9 96 53.1 0.0 0.0 --- 0.00 29.885
11/12/2002 12:00 a 53.3 53.3 53.3 53.9 52.8 96 52.2 0.0 0.0 --- 0.00 29.902
11/12/2002 12:30 a 52.2 52.2 52.2 52.8 51.8 96 51.1 0.0 0.0 --- 0.00 29.907
11/12/2002 1:00 a 51.4 51.4 51.4 51.9 51.2 97 50.6 0.0 0.0 --- 0.00 29.917
11/12/2002 1:30 a 51.1 51.1 51.1 51.3 50.9 97 50.3 0.0 0.0 --- 0.00 29.916
11/12/2002 2:00 a 50.7 50.7 50.7 51.0 50.5 96 49.6 0.0 0.0 --- 0.00 29.920
11/12/2002 2:30 a 50.5 50.5 50.5 50.6 50.4 97 49.7 0.0 0.0 --- 0.00 29.928
11/12/2002 3:00 a 50.6 50.6 50.6 50.8 50.3 96 49.5 0.0 0.0 --- 0.00 29.929
11/12/2002 3:30 a 50.4 50.4 50.4 50.5 50.1 97 49.6 0.0 0.0 --- 0.00 29.936
11/12/2002 4:00 a 50.2 50.2 50.2 50.3 50.0 97 49.4 0.0 0.0 --- 0.00 29.954
11/12/2002 4:30 a 50.5 50.5 50.5 51.1 50.3 97 49.7 0.0 0.0 --- 0.00 29.971
11/12/2002 5:00 a 51.3 51.3 51.3 51.4 51.1 97 50.5 0.0 0.0 --- 0.00 29.979
11/12/2002 5:30 a 51.4 51.4 51.4 51.9 51.0 97 50.6 0.0 0.0 --- 0.00 29.971
11/12/2002 6:00 a 51.8 51.8 51.8 51.9 51.7 97 51.0 0.0 0.0 --- 0.00 29.966
11/12/2002 6:30 a 51.9 51.9 51.9 52.0 51.8 97 51.1 0.0 0.0 --- 0.00 29.960
11/12/2002 7:00 a 51.8 51.8 51.8 51.9 51.8 97 51.0 0.0 0.0 --- 0.00 29.963
11/12/2002 7:30 a 52.1 52.1 52.1 52.2 51.9 97 51.3 0.0 0.0 --- 0.00 29.967
11/12/2002 8:00 a 52.3 52.3 52.3 52.6 52.1 97 51.5 0.0 0.0 --- 0.00 29.993
11/12/2002 8:30 a 52.7 52.7 52.7 52.8 52.6 97 51.9 0.0 0.0 --- 0.01 29.981
11/12/2002 9:00 a 52.8 52.8 52.8 52.9 52.7 97 52.0 0.0 0.0 --- 0.01 29.975
11/12/2002 9:30 a 52.7 52.7 52.7 52.8 52.4 97 51.9 0.0 0.0 --- 0.00 29.994
11/12/2002 10:00 a 52.3 52.3 52.3 52.5 52.3 97 51.5 0.0 0.0 --- 0.02 29.986
11/12/2002 10:30 a 52.3 52.3 52.3 52.5 51.9 97 51.5 0.0 0.0 --- 0.00 29.960
11/12/2002 11:00 a 51.6 51.6 51.6 51.9 51.4 97 50.8 0.0 0.0 --- 0.01 29.971
11/12/2002 11:30 a 51.4 51.4 51.4 51.5 51.2 97 50.6 0.0 2.0 SSW 0.06 29.973
11/12/2002 12:00 p 51.2 51.2 51.2 51.3 50.9 97 50.4 0.0 2.0 S 0.07 29.966
11/12/2002 12:30 p 50.6 50.6 50.6 50.9 50.4 97 49.8 0.0 1.0 S 0.02 29.939
11/12/2002 1:00 p 50.4 50.4 50.4 50.6 50.1 97 49.6 0.0 1.0 S 0.04 29.937
11/12/2002 1:30 p 50.0 50.0 50.0 50.1 49.8 98 49.5 0.0 2.0 S 0.02 29.908
11/12/2002 2:00 p 49.8 49.8 49.8 49.9 49.8 97 49.0 0.0 2.0 W 0.02 29.895
11/12/2002 2:30 p 49.6 49.6 49.6 49.9 49.4 98 49.1 0.0 2.0 S 0.02 29.873
11/12/2002 3:00 p 49.3 49.3 49.3 49.4 49.1 97 48.5 0.0 4.0 W 0.04 29.854
11/12/2002 3:30 p 49.0 49.0 49.0 49.1 49.0 97 48.2 0.0 3.0 W 0.02 29.851
11/12/2002 4:00 p 48.9 48.9 48.9 49.0 48.7 97 48.1 0.0 2.0 WNW 0.04 29.813
11/12/2002 4:30 p 48.6 48.6 48.6 48.7 48.5 98 48.1 0.0 4.0 WNW 0.01 29.836
11/12/2002 5:00 p 48.3 48.3 48.3 48.5 48.2 97 47.5 1.0 7.0 SSE 0.07 29.827
11/12/2002 5:30 p 48.3 48.3 48.3 48.5 48.3 98 47.8 0.0 5.0 SE 0.06 29.829
11/12/2002 6:00 p 48.7 48.7 48.7 48.7 48.5 97 47.9 0.0 3.0 SE 0.04 29.827
11/12/2002 6:30 p 48.6 48.6 48.6 48.7 48.6 98 48.1 0.0 3.0 SSE 0.02 29.816
11/12/2002 7:00 p 48.7 48.7 48.7 48.8 48.6 97 47.9 1.0 4.0 S 0.01 29.815
11/12/2002 7:30 p 48.6 48.6 48.6 48.8 48.5 98 48.1 0.0 6.0 SSE 0.02 29.805
11/12/2002 8:00 p 48.3 48.3 48.3 48.5 48.3 97 47.5 1.0 5.0 SSE 0.00 29.801
11/12/2002 8:30 p 48.2 48.2 48.2 48.3 48.0 97 47.4 1.0 6.0 SSE 0.02 29.787
11/12/2002 9:00 p 47.9 47.9 47.9 48.1 47.9 98 47.4 0.0 3.0 WSW 0.00 29.772
11/12/2002 9:30 p 47.8 47.8 47.8 47.9 47.7 97 47.0 0.0 4.0 W 0.00 29.770
11/12/2002 10:00 p 47.8 47.8 47.8 47.8 47.7 98 47.3 0.0 2.0 SSE 0.00 29.778
11/12/2002 10:30 p 47.8 47.8 47.8 47.8 47.7 97 47.0 1.0 4.0 SSE 0.00 29.794
11/12/2002 11:00 p 47.8 47.8 47.8 47.8 47.8 97 47.0 0.0 3.0 SE 0.01 29.778
11/12/2002 11:30 p 47.9 47.9 47.9 48.0 47.8 98 47.4 0.0 5.0 SE 0.00 29.797
11/13/2002 12:00 a 48.0 48.0 48.0 48.1 47.9 98 47.5 0.0 5.0 SSE 0.00 29.803
11/13/2002 12:30 a 48.0 48.0 48.0 48.1 47.9 98 47.5 0.0 3.0 SSE 0.02 29.776
11/13/2002 1:00 a 47.9 47.9 47.9 47.9 47.8 98 47.4 0.0 4.0 SE 0.01 29.800
11/13/2002 1:30 a 47.7 47.7 47.7 47.9 47.6 98 47.2 0.0 4.0 SSE 0.01 29.793
11/13/2002 2:00 a 47.6 47.6 47.6 47.6 47.5 98 47.1 1.0 4.0 SSE 0.00 29.795
11/13/2002 2:30 a 47.5 47.5 47.5 47.6 47.4 98 47.0 0.0 3.0 SSE 0.00 29.792
11/13/2002 3:00 a 47.4 47.4 47.4 47.5 47.3 98 46.9 0.0 3.0 SSE 0.00 29.794
11/13/2002 3:30 a 47.4 47.4 47.4 47.4 47.3 97 46.6 0.0 2.0 SSW 0.00 29.801
11/13/2002 4:00 a 47.4 47.4 47.4 47.5 47.4 98 46.9 0.0 2.0 SSW 0.00 29.806
11/13/2002 4:30 a 47.4 47.4 47.4 47.5 47.3 98 46.9 0.0 3.0 SSE 0.00 29.798
11/13/2002 5:00 a 47.4 47.4 47.4 47.5 47.3 97 46.6 0.0 2.0 SSE 0.00 29.812
11/13/2002 5:30 a 47.4 47.4 47.4 47.4 47.3 97 46.6 0.0 2.0 SSE 0.00 29.824
11/13/2002 6:00 a 47.3 47.3 47.3 47.4 47.2 97 46.5 0.0 3.0 SSE 0.01 29.814
11/13/2002 6:30 a 47.1 47.1 47.1 47.2 47.0 98 46.6 0.0 1.0 SSE 0.00 29.847
11/13/2002 7:00 a 47.0 47.0 47.0 47.1 47.0 97 46.2 0.0 0.0 --- 0.02 29.839
11/13/2002 8:00 a 47.1 47.1 47.1 47.2 46.9 97 46.3 0.0 3.0 SSE 0.00 29.844
11/13/2002 8:30 a 47.1 47.1 47.1 47.2 47.1 97 46.3 0.0 3.0 SSE 0.00 29.845
11/13/2002 9:00 a 47.3 47.3 47.3 47.6 47.1 97 46.5 0.0 3.0 S 0.01 29.838
11/13/2002 9:30 a 47.6 47.6 47.6 47.8 47.5 97 46.8 0.0 5.0 SSE 0.00 29.824
11/13/2002 10:00 a 48.2 48.2 48.2 48.6 47.8 97 47.4 0.0 3.0 SSE 0.00 29.832
11/13/2002 10:30 a 48.5 48.5 48.5 48.6 48.3 97 47.7 1.0 4.0 SSE 0.00 29.841
11/13/2002 11:00 a 48.4 48.4 48.4 48.5 48.4 97 47.6 1.0 4.0 SSE 0.00 29.852
11/13/2002 11:30 a 48.0 48.0 48.0 48.4 47.7 97 47.2 1.0 6.0 SSE 0.00 29.819
11/13/2002 12:00 p 48.1 48.1 48.1 48.4 47.8 96 47.0 1.0 5.0 SSE 0.00 29.819
11/13/2002 12:30 p 48.5 48.5 48.5 49.4 47.8 95 47.1 1.0 6.0 SSE 0.00 29.765
11/13/2002 1:00 p 49.8 49.8 49.8 49.9 49.4 95 48.4 1.0 6.0 SSE 0.00 29.790
11/13/2002 1:30 p 50.1 50.1 50.1 50.4 49.9 94 48.4 1.0 7.0 SSE 0.00 29.781
11/13/2002 2:00 p 49.8 49.8 49.8 50.0 49.7 93 47.9 1.0 5.0 SSE 0.00 29.804
11/13/2002 2:30 p 49.5 49.5 49.5 49.8 49.1 89 46.4 1.0 7.0 SSE 0.00 29.824
11/13/2002 3:00 p 48.9 48.9 48.9 49.1 48.7 85 44.6 1.0 8.0 SSE 0.00 29.816
11/13/2002 3:30 p 48.5 48.5 48.5 48.7 48.4 81 42.9 0.0 4.0 SSE 0.00 29.803
11/13/2002 4:00 p 48.3 48.3 48.3 48.4 48.2 78 41.8 1.0 6.0 SSE 0.00 29.815
11/13/2002 4:30 p 48.1 48.1 48.1 48.2 47.9 79 41.9 1.0 6.0 SSE 0.00 29.825
11/13/2002 5:00 p 47.7 47.7 47.7 47.9 47.1 74 39.8 2.0 7.0 S 0.00 29.816
11/13/2002 5:30 p 46.5 46.5 46.5 47.1 46.3 77 39.7 1.0 6.0 SSE 0.00 29.838
11/13/2002 6:00 p 45.7 45.7 45.7 46.3 44.6 77 38.9 1.0 6.0 SSE 0.00 29.849
11/13/2002 6:30 p 44.1 44.1 44.1 44.6 43.9 78 37.7 1.0 9.0 SSE 0.00 29.857
11/13/2002 7:00 p 43.3 43.3 43.3 43.9 42.3 80 37.6 0.0 6.0 SSE 0.00 29.881
11/13/2002 7:30 p 42.1 42.1 42.1 42.3 41.9 79 36.1 0.0 5.0 SSE 0.00 29.882
11/13/2002 8:00 p 42.2 42.2 42.2 42.4 41.9 77 35.5 1.0 6.0 SSE 0.00 29.882
11/13/2002 8:30 p 41.6 41.6 41.6 41.9 41.2 77 34.9 1.0 7.0 SSE 0.00 29.882
11/13/2002 9:00 p 40.7 40.7 40.7 41.2 40.2 76 33.7 0.0 5.0 SSE 0.00 29.881
11/13/2002 9:30 p 41.1 41.1 41.1 41.3 40.7 74 33.5 1.0 7.0 SSE 0.00 29.887
11/13/2002 10:00 p 40.9 40.9 40.9 41.2 40.6 77 34.3 1.0 5.0 SSE 0.00 29.884
11/13/2002 10:30 p 40.7 40.7 40.7 40.9 40.5 76 33.7 1.0 6.0 SSE 0.00 29.883
11/13/2002 11:00 p 38.8 38.8 38.8 40.6 37.2 86 35.0 0.0 0.0 --- 0.00 29.888
11/13/2002 11:30 p 35.9 35.9 35.9 37.1 34.9 91 33.5 0.0 0.0 --- 0.00 29.883
11/14/2002 12:00 a 34.3 34.3 34.3 34.9 33.7 93 32.5 0.0 0.0 --- 0.00 29.890
11/14/2002 12:30 a 33.2 33.2 33.2 33.7 32.5 93 31.4 0.0 0.0 --- 0.00 29.890
11/14/2002 1:00 a 32.5 32.5 32.5 32.7 32.2 94 31.0 0.0 1.0 --- 0.00 29.887
11/14/2002 1:30 a 33.0 33.0 33.0 33.1 32.7 93 31.2 0.0 0.0 --- 0.00 29.887
11/14/2002 2:00 a 32.1 32.1 32.1 33.0 31.4 93 30.3 0.0 0.0 --- 0.00 29.903
11/14/2002 2:30 a 31.6 31.6 31.6 32.1 31.2 94 30.1 0.0 1.0 SSE 0.00 29.898
11/14/2002 3:00 a 31.7 31.7 31.7 32.3 31.2 93 29.9 0.0 0.0 --- 0.00 29.894
11/14/2002 3:30 a 30.8 30.8 30.8 31.3 30.2 93 29.0 0.0 0.0 --- 0.00 29.888
11/14/2002 4:00 a 30.0 30.0 30.0 30.2 29.8 93 28.2 0.0 0.0 --- 0.00 29.893
11/14/2002 4:30 a 29.6 29.6 29.6 29.8 29.3 93 27.8 0.0 0.0 --- 0.00 29.898
11/14/2002 5:00 a 29.6 29.6 29.6 29.9 29.3 93 27.8 0.0 3.0 SSE 0.00 29.909
11/14/2002 5:30 a 29.2 29.2 29.2 29.4 29.1 94 27.7 0.0 0.0 --- 0.00 29.916
11/14/2002 6:00 a 29.0 29.0 29.0 29.2 28.9 93 27.2 0.0 0.0 --- 0.00 29.921
11/14/2002 6:30 a 28.9 28.9 28.9 29.1 28.6 93 27.1 0.0 0.0 --- 0.00 29.930
11/14/2002 7:00 a 28.9 28.9 28.9 29.5 28.7 94 27.4 0.0 0.0 --- 0.00 29.937
11/14/2002 7:30 a 30.3 30.3 30.3 31.7 29.5 94 28.8 0.0 0.0 --- 0.00 29.938
11/14/2002 8:00 a 36.2 36.2 36.2 41.7 31.7 89 33.3 0.0 0.0 --- 0.00 29.942
11/14/2002 8:30 a 44.1 44.1 44.1 45.9 41.7 83 39.3 0.0 0.0 --- 0.00 29.940
11/14/2002 9:00 a 44.9 44.9 44.9 46.0 43.3 83 40.1 0.0 1.0 SSE 0.00 29.935
11/14/2002 9:30 a 44.6 44.6 44.6 45.7 43.2 79 38.5 0.0 1.0 SSE 0.00 29.922
11/14/2002 10:00 a 46.1 46.1 46.1 48.1 45.4 68 36.1 0.0 1.0 SSE 0.00 29.937
11/14/2002 10:30 a 51.4 51.4 51.4 52.6 48.3 63 39.2 0.0 3.0 E 0.00 29.932
11/14/2002 11:00 a 51.8 51.8 51.8 54.6 50.8 57 37.1 0.0 3.0 SE 0.00 29.911
11/14/2002 11:30 a 58.8 58.8 58.8 62.4 54.6 45 37.5 0.0 4.0 SSE 0.00 29.901
11/14/2002 12:00 p 62.1 62.1 62.1 62.8 60.3 48 42.2 1.0 5.0 SSE 0.00 29.887
11/14/2002 12:30 p 56.0 56.0 56.0 60.1 54.5 58 41.4 0.0 4.0 SSE 0.00 29.868
11/14/2002 1:00 p 54.6 54.6 54.6 55.0 54.5 56 39.2 0.0 4.0 SSE 0.00 29.867
11/14/2002 1:30 p 55.0 55.0 55.0 55.1 54.9 57 40.1 0.0 2.0 ENE 0.00 29.858
11/14/2002 2:00 p 55.0 55.0 55.0 55.2 54.8 57 40.1 0.0 3.0 SE 0.00 29.852
11/14/2002 2:30 p 55.2 55.2 55.2 55.4 55.0 57 40.2 0.0 4.0 SSE 0.00 29.844
11/14/2002 3:00 p 54.7 54.7 54.7 55.0 54.4 59 40.7 0.0 2.0 E 0.00 29.841
11/14/2002 3:30 p 54.2 54.2 54.2 54.5 53.7 61 41.1 0.0 1.0 SE 0.00 29.842
11/14/2002 4:00 p 52.8 52.8 52.8 53.7 52.1 64 41.0 0.0 1.0 NNW 0.00 29.835
11/14/2002 4:30 p 50.9 50.9 50.9 52.0 49.7 69 41.1 0.0 0.0 --- 0.00 29.841
11/14/2002 5:00 p 48.4 48.4 48.4 49.7 47.2 74 40.5 0.0 0.0 --- 0.00 29.840
11/14/2002 5:30 p 46.1 46.1 46.1 47.2 45.1 80 40.3 0.0 0.0 --- 0.00 29.847
11/14/2002 6:00 p 45.2 45.2 45.2 45.3 44.9 80 39.4 0.0 0.0 --- 0.00 29.851
11/14/2002 6:30 p 44.8 44.8 44.8 45.2 44.6 81 39.3 0.0 0.0 --- 0.00 29.860
11/14/2002 7:00 p 45.2 45.2 45.2 45.5 44.8 83 40.4 0.0 0.0 --- 0.00 29.863
11/14/2002 7:30 p 44.1 44.1 44.1 44.9 42.9 88 40.8 0.0 0.0 --- 0.00 29.864
11/14/2002 8:00 p 43.6 43.6 43.6 44.5 42.8 86 39.7 0.0 0.0 --- 0.00 29.870
11/14/2002 8:30 p 44.0 44.0 44.0 44.4 43.5 88 40.7 0.0 0.0 --- 0.00 29.866
11/14/2002 9:00 p 42.8 42.8 42.8 43.5 42.3 89 39.8 0.0 0.0 --- 0.00 29.861
11/14/2002 9:30 p 42.5 42.5 42.5 42.7 42.1 88 39.2 0.0 0.0 --- 0.00 29.859
11/14/2002 10:00 p 43.4 43.4 43.4 44.4 42.7 84 38.9 0.0 0.0 --- 0.00 29.856
11/14/2002 10:30 p 45.9 45.9 45.9 46.9 44.5 79 39.8 0.0 0.0 --- 0.00 29.857
11/14/2002 11:00 p 47.1 47.1 47.1 47.6 46.8 77 40.3 0.0 0.0 --- 0.00 29.854
11/14/2002 11:30 p 47.9 47.9 47.9 48.2 47.6 74 40.0 0.0 0.0 --- 0.00 29.852
11/15/2002 12:00 a 48.3 48.3 48.3 48.4 48.1 73 40.1 0.0 0.0 --- 0.00 29.854
11/15/2002 12:30 a 48.4 48.4 48.4 48.5 48.3 73 40.2 0.0 0.0 --- 0.00 29.846
11/15/2002 1:00 a 48.1 48.1 48.1 48.4 47.7 74 40.2 0.0 0.0 --- 0.00 29.849
11/15/2002 1:30 a 46.9 46.9 46.9 47.7 45.5 80 41.1 0.0 0.0 --- 0.00 29.847
11/15/2002 2:00 a 43.9 43.9 43.9 45.4 42.9 87 40.3 0.0 0.0 --- 0.00 29.846
11/15/2002 2:30 a 42.5 42.5 42.5 42.9 42.0 89 39.5 0.0 0.0 --- 0.00 29.835
11/15/2002 3:00 a 41.6 41.6 41.6 42.0 40.9 90 38.9 0.0 0.0 --- 0.00 29.839
11/15/2002 3:30 a 40.4 40.4 40.4 40.9 40.3 91 38.0 0.0 0.0 --- 0.00 29.837
11/15/2002 4:00 a 39.2 39.2 39.2 40.3 38.6 93 37.4 0.0 0.0 --- 0.00 29.838
11/15/2002 4:30 a 38.3 38.3 38.3 38.5 38.0 93 36.5 0.0 0.0 --- 0.00 29.843
11/15/2002 5:00 a 38.0 38.0 38.0 38.3 37.7 94 36.4 0.0 0.0 --- 0.00 29.847
11/15/2002 5:30 a 37.9 37.9 37.9 38.0 37.7 93 36.1 0.0 0.0 --- 0.00 29.843
11/15/2002 6:00 a 37.3 37.3 37.3 37.7 36.9 94 35.7 0.0 0.0 --- 0.00 29.842
11/15/2002 6:30 a 37.0 37.0 37.0 37.3 36.5 93 35.2 0.0 0.0 --- 0.00 29.853
11/15/2002 7:00 a 36.1 36.1 36.1 36.5 35.9 93 34.3 0.0 0.0 --- 0.00 29.863
11/15/2002 7:30 a 37.2 37.2 37.2 38.9 36.1 93 35.4 0.0 0.0 --- 0.00 29.872
11/15/2002 8:00 a 41.1 41.1 41.1 43.8 38.9 92 39.0 0.0 0.0 --- 0.00 29.877
11/15/2002 8:30 a 47.8 47.8 47.8 50.7 43.7 82 42.6 0.0 1.0 NNW 0.00 29.874
11/15/2002 9:00 a 51.4 51.4 51.4 52.0 50.7 73 43.0 0.0 2.0 NW 0.00 29.878
11/15/2002 9:30 a 51.6 51.6 51.6 52.7 51.1 69 41.8 0.0 2.0 SW 0.00 29.876
11/15/2002 10:00 a 53.0 53.0 53.0 54.7 52.2 62 40.3 0.0 2.0 SSW 0.00 29.870
11/15/2002 10:30 a 58.3 58.3 58.3 59.9 54.9 57 43.2 0.0 3.0 S 0.00 29.869
11/15/2002 11:00 a 58.7 58.7 58.7 61.2 57.5 50 40.1 0.0 2.0 S 0.00 29.864
11/15/2002 11:30 a 63.2 63.2 63.2 66.5 61.2 42 39.8 0.0 3.0 S 0.00 29.855
11/15/2002 12:00 p 66.7 66.7 66.7 67.6 64.7 45 44.7 0.0 4.0 S 0.00 29.849
11/15/2002 12:30 p 62.0 62.0 62.0 64.5 61.2 47 41.6 0.0 2.0 SW 0.00 29.842
11/15/2002 1:00 p 60.7 60.7 60.7 61.3 60.4 47 40.4 0.0 3.0 S 0.00 29.837
11/15/2002 1:30 p 60.2 60.2 60.2 60.6 59.8 48 40.5 0.0 3.0 S 0.00 29.835
11/15/2002 2:00 p 59.5 59.5 59.5 59.8 59.3 44 37.6 0.0 3.0 SSW 0.00 29.826
11/15/2002 2:30 p 59.1 59.1 59.1 59.5 58.6 46 38.4 0.0 2.0 NNE 0.00 29.825
11/15/2002 3:00 p 58.2 58.2 58.2 58.9 57.8 48 38.6 0.0 2.0 ESE 0.00 29.830
11/15/2002 3:30 p 57.0 57.0 57.0 57.8 56.1 55 41.0 0.0 3.0 SSW 0.00 29.838
11/15/2002 4:00 p 55.2 55.2 55.2 56.1 54.0 56 39.8 0.0 1.0 --- 0.00 29.846
11/15/2002 4:30 p 52.3 52.3 52.3 53.9 50.6 62 39.7 0.0 0.0 --- 0.00 29.855
11/15/2002 5:00 p 49.5 49.5 49.5 50.6 48.6 67 39.0 0.0 0.0 --- 0.00 29.866
11/15/2002 5:30 p 47.8 47.8 47.8 48.6 46.9 71 38.9 0.0 0.0 --- 0.00 29.871
11/15/2002 6:00 p 46.4 46.4 46.4 46.9 45.7 76 39.3 0.0 0.0 --- 0.00 29.883
11/15/2002 6:30 p 43.9 43.9 43.9 45.7 42.8 82 38.8 0.0 0.0 --- 0.00 29.890
11/15/2002 7:00 p 42.2 42.2 42.2 42.7 41.7 86 38.3 0.0 0.0 --- 0.00 29.899
11/15/2002 7:30 p 41.3 41.3 41.3 41.7 41.1 86 37.4 0.0 0.0 --- 0.00 29.906
11/15/2002 8:00 p 41.6 41.6 41.6 42.1 41.5 86 37.7 0.0 0.0 --- 0.00 29.907
11/15/2002 8:30 p 42.0 42.0 42.0 42.1 41.9 86 38.1 0.0 0.0 --- 0.00 29.914
11/15/2002 9:00 p 42.2 42.2 42.2 42.3 42.0 87 38.6 0.0 0.0 --- 0.00 29.908
11/15/2002 9:30 p 42.2 42.2 42.2 42.4 42.0 88 38.9 0.0 0.0 --- 0.00 29.911
11/15/2002 10:00 p 41.1 41.1 41.1 42.1 40.6 90 38.4 0.0 0.0 --- 0.00 29.917
11/15/2002 10:30 p 40.9 40.9 40.9 41.0 40.7 90 38.2 0.0 0.0 --- 0.00 29.920
11/15/2002 11:00 p 41.1 41.1 41.1 41.2 40.8 90 38.4 0.0 0.0 --- 0.00 29.926
11/15/2002 11:30 p 41.2 41.2 41.2 41.4 40.8 89 38.2 0.0 0.0 --- 0.00 29.938
11/16/2002 12:00 a 41.2 41.2 41.2 41.4 41.0 90 38.5 0.0 0.0 --- 0.00 29.935
11/16/2002 12:30 a 41.3 41.3 41.3 41.6 41.0 91 38.9 0.0 0.0 --- 0.00 29.933
11/16/2002 1:00 a 41.4 41.4 41.4 41.9 41.2 89 38.4 0.0 0.0 --- 0.00 29.925
11/16/2002 1:30 a 42.1 42.1 42.1 42.3 41.9 88 38.8 0.0 0.0 --- 0.00 29.917
11/16/2002 2:00 a 42.4 42.4 42.4 42.6 42.3 87 38.8 0.0 0.0 --- 0.00 29.907
11/16/2002 2:30 a 42.1 42.1 42.1 42.6 41.3 89 39.1 0.0 0.0 --- 0.00 29.926
11/16/2002 3:00 a 41.0 41.0 41.0 41.2 40.8 90 38.3 0.0 1.0 --- 0.00 29.926
11/16/2002 3:30 a 41.6 41.6 41.6 43.1 41.1 84 37.1 0.0 1.0 --- 0.00 29.931
11/16/2002 4:00 a 45.1 45.1 45.1 46.2 43.2 75 37.7 0.0 3.0 SSW 0.00 29.931
11/16/2002 4:30 a 46.4 46.4 46.4 46.5 46.2 75 38.9 0.0 2.0 WNW 0.00 29.933
11/16/2002 5:00 a 46.3 46.3 46.3 46.4 46.2 74 38.5 0.0 3.0 NW 0.00 29.939
11/16/2002 5:30 a 46.1 46.1 46.1 46.2 46.0 75 38.6 0.0 1.0 NW 0.00 29.969
11/16/2002 6:00 a 46.0 46.0 46.0 46.1 45.9 73 37.8 0.0 1.0 WSW 0.00 29.973
11/16/2002 6:30 a 45.6 45.6 45.6 46.1 45.4 75 38.1 0.0 1.0 WSW 0.00 29.988
11/16/2002 7:00 a 45.5 45.5 45.5 45.7 45.4 73 37.4 0.0 2.0 WSW 0.00 29.998
11/16/2002 7:30 a 45.7 45.7 45.7 45.8 45.6 74 37.9 0.0 2.0 WNW 0.00 30.008
11/16/2002 8:00 a 44.8 44.8 44.8 45.6 44.5 79 38.7 0.0 3.0 W 0.00 30.015
11/16/2002 8:30 a 45.1 45.1 45.1 45.2 44.8 79 39.0 0.0 4.0 NW 0.00 30.011
11/16/2002 9:00 a 44.4 44.4 44.4 45.1 43.4 90 41.7 1.0 3.0 NW 0.00 29.993
11/16/2002 9:30 a 43.2 43.2 43.2 43.4 43.0 94 41.6 0.0 3.0 WNW 0.01 30.014
11/16/2002 10:00 a 42.8 42.8 42.8 43.1 42.6 94 41.2 0.0 3.0 W 0.00 29.997
11/16/2002 10:30 a 42.8 42.8 42.8 43.0 42.7 95 41.5 0.0 3.0 NW 0.00 30.000
11/16/2002 11:00 a 42.9 42.9 42.9 43.0 42.8 95 41.6 1.0 4.0 NW 0.00 29.986
11/16/2002 11:30 a 43.2 43.2 43.2 43.3 43.0 95 41.9 0.0 3.0 NW 0.00 29.981
11/16/2002 12:00 p 43.2 43.2 43.2 43.4 43.1 95 41.9 1.0 3.0 NW 0.00 29.965
11/16/2002 12:30 p 43.8 43.8 43.8 44.1 43.4 95 42.5 1.0 4.0 NW 0.00 29.946
11/16/2002 1:00 p 43.7 43.7 43.7 44.1 43.3 95 42.4 1.0 4.0 NW 0.00 29.944
11/16/2002 1:30 p 43.2 43.2 43.2 43.4 43.1 95 41.9 1.0 4.0 NW 0.00 29.945
11/16/2002 2:00 p 43.1 43.1 43.1 43.2 43.1 96 42.0 1.0 4.0 NW 0.00 29.936
11/16/2002 2:30 p 43.1 43.1 43.1 43.1 43.0 96 42.0 1.0 4.0 NW 0.00 29.945
11/16/2002 3:00 p 43.1 43.1 43.1 43.2 43.0 96 42.0 1.0 4.0 NW 0.00 29.947
11/16/2002 3:30 p 43.3 43.3 43.3 43.4 43.2 96 42.2 0.0 3.0 WNW 0.00 29.961
11/16/2002 4:00 p 43.0 43.0 43.0 43.3 42.7 96 41.9 1.0 4.0 NW 0.00 29.953
11/16/2002 4:30 p 42.4 42.4 42.4 42.7 42.2 96 41.3 1.0 4.0 NNW 0.00 29.946
11/16/2002 5:00 p 42.0 42.0 42.0 42.2 41.8 96 40.9 1.0 4.0 NW 0.00 29.948
11/16/2002 5:30 p 41.5 41.5 41.5 41.8 41.2 96 40.4 1.0 5.0 NW 0.00 29.927
11/16/2002 6:00 p 41.0 41.0 41.0 41.2 40.7 96 39.9 1.0 6.0 NW 0.00 29.923
11/16/2002 6:30 p 40.6 40.6 40.6 40.7 40.4 96 39.6 1.0 5.0 NW 0.00 29.930
11/16/2002 7:00 p 40.3 40.3 40.3 40.4 40.1 96 39.3 2.0 5.0 NW 0.00 29.918
11/16/2002 7:30 p 40.0 40.0 40.0 40.1 39.8 96 39.0 2.0 5.0 NW 0.00 29.907
11/16/2002 8:00 p 39.6 39.6 39.6 39.8 39.3 97 38.8 1.0 5.0 NW 0.00 29.895
11/16/2002 8:30 p 39.0 39.0 39.0 39.3 38.8 97 38.2 1.0 4.0 WNW 0.00 29.889
11/16/2002 9:00 p 38.6 38.6 38.6 38.8 38.4 96 37.6 1.0 4.0 NW 0.11 29.879
11/16/2002 9:30 p 38.3 38.3 38.3 38.4 38.2 97 37.5 1.0 6.0 NW 0.12 29.857
11/16/2002 10:00 p 38.1 38.1 38.1 38.2 38.1 96 37.1 1.0 6.0 NW 0.10 29.836
11/16/2002 10:30 p 37.9 37.9 37.9 38.1 37.7 96 36.9 2.0 6.0 NW 0.06 29.806
11/16/2002 11:00 p 37.7 37.7 37.7 37.7 37.5 96 36.7 1.0 7.0 NW 0.07 29.786
11/16/2002 11:30 p 37.5 37.5 37.5 37.6 37.4 96 36.5 1.0 5.0 NW 0.04 29.758
11/17/2002 12:00 a 37.4 37.4 37.4 37.4 37.3 96 36.4 1.0 6.0 NW 0.01 29.738
11/17/2002 12:30 a 37.2 37.2 37.2 37.3 37.2 96 36.2 1.0 4.0 WNW 0.01 29.705
11/17/2002 1:00 a 37.1 37.1 37.1 37.2 37.1 97 36.3 1.0 4.0 NW 0.01 29.675
11/17/2002 1:30 a 37.1 37.1 37.1 37.2 37.1 96 36.1 1.0 4.0 WSW 0.02 29.654
11/17/2002 2:00 a 37.5 37.5 37.5 37.6 37.3 97 36.7 1.0 6.0 WNW 0.15 29.642
11/17/2002 2:30 a 37.8 37.8 37.8 37.9 37.6 97 37.0 1.0 4.0 NW 0.09 29.616
11/17/2002 3:00 a 37.9 37.9 37.9 38.0 37.9 97 37.1 1.0 7.0 WNW 0.08 29.582
11/17/2002 3:30 a 38.0 38.0 38.0 38.0 37.9 97 37.2 1.0 5.0 WNW 0.04 29.574
11/17/2002 4:00 a 38.1 38.1 38.1 38.2 38.0 97 37.3 1.0 4.0 WNW 0.07 29.585
11/17/2002 4:30 a 38.3 38.3 38.3 38.4 38.2 97 37.5 1.0 5.0 W 0.02 29.587
11/17/2002 5:00 a 38.3 38.3 38.3 38.4 38.2 97 37.5 1.0 6.0 W 0.02 29.570
11/17/2002 5:30 a 38.2 38.2 38.2 38.3 38.2 97 37.4 1.0 3.0 SW 0.01 29.571
11/17/2002 6:00 a 38.3 38.3 38.3 38.4 38.2 97 37.5 1.0 4.0 W 0.00 29.557
11/17/2002 6:30 a 38.4 38.4 38.4 38.4 38.3 97 37.6 1.0 6.0 NW 0.00 29.532
11/17/2002 7:00 a 38.5 38.5 38.5 38.5 38.4 97 37.7 1.0 6.0 NW 0.00 29.516
11/17/2002 7:30 a 38.6 38.6 38.6 38.7 38.5 97 37.8 1.0 6.0 NW 0.01 29.520
11/17/2002 8:00 a 38.9 38.9 38.9 39.2 38.7 97 38.1 1.0 6.0 NW 0.00 29.496
11/17/2002 8:30 a 39.3 39.3 39.3 39.6 39.2 97 38.5 1.0 5.0 NW 0.00 29.483
11/17/2002 9:00 a 39.8 39.8 39.8 40.1 39.6 97 39.0 1.0 7.0 NW 0.01 29.513
11/17/2002 9:30 a 40.1 40.1 40.1 40.2 40.0 97 39.3 1.0 5.0 SSE 0.00 29.531
11/17/2002 10:00 a 40.3 40.3 40.3 40.5 40.1 97 39.5 0.0 3.0 SSE 0.00 29.545
11/17/2002 10:30 a 40.7 40.7 40.7 41.1 40.5 98 40.2 0.0 2.0 SSE 0.00 29.546
11/17/2002 11:00 a 41.6 41.6 41.6 42.4 41.1 97 40.8 0.0 3.0 NW 0.01 29.508
11/17/2002 11:30 a 42.3 42.3 42.3 42.5 42.1 97 41.5 0.0 4.0 NW 0.00 29.508
11/17/2002 12:00 p 42.4 42.4 42.4 42.6 42.2 97 41.6 0.0 3.0 NW 0.00 29.491
11/17/2002 12:30 p 42.5 42.5 42.5 42.6 42.5 97 41.7 0.0 4.0 WSW 0.00 29.500
11/17/2002 1:00 p 42.4 42.4 42.4 42.6 42.3 97 41.6 1.0 4.0 NW 0.00 29.493
11/17/2002 1:30 p 42.2 42.2 42.2 42.3 42.1 97 41.4 0.0 3.0 NW 0.00 29.488
11/17/2002 2:00 p 42.2 42.2 42.2 42.3 42.1 97 41.4 0.0 4.0 S 0.00 29.488
11/17/2002 2:30 p 42.1 42.1 42.1 42.2 42.0 97 41.3 0.0 0.0 --- 0.00 29.477
11/17/2002 3:00 p 42.1 42.1 42.1 42.2 42.0 97 41.3 0.0 0.0 --- 0.00 29.490
11/17/2002 3:30 p 41.9 41.9 41.9 42.0 41.8 97 41.1 0.0 0.0 --- 0.00 29.489
11/17/2002 4:00 p 41.7 41.7 41.7 41.8 41.6 97 40.9 0.0 0.0 --- 0.00 29.507
11/17/2002 4:30 p 41.8 41.8 41.8 41.9 41.8 97 41.0 0.0 0.0 --- 0.01 29.460
11/17/2002 5:00 p 41.8 41.8 41.8 41.9 41.5 97 41.0 0.0 1.0 S 0.00 29.446
11/17/2002 5:30 p 41.4 41.4 41.4 41.5 41.3 97 40.6 0.0 1.0 S 0.00 29.481
11/17/2002 6:00 p 41.2 41.2 41.2 41.3 41.2 97 40.4 0.0 0.0 --- 0.00 29.478
11/17/2002 6:30 p 41.2 41.2 41.2 41.3 41.1 97 40.4 0.0 2.0 S 0.00 29.463
11/17/2002 7:00 p 40.8 40.8 40.8 41.1 40.5 97 40.0 0.0 0.0 --- 0.00 29.453
11/17/2002 7:30 p 40.4 40.4 40.4 40.5 40.3 97 39.6 0.0 1.0 S 0.00 29.483
11/17/2002 8:00 p 40.3 40.3 40.3 40.4 40.0 97 39.5 0.0 2.0 S 0.00 29.454
11/17/2002 8:30 p 39.9 39.9 39.9 40.0 39.8 97 39.1 0.0 2.0 S 0.00 29.485
11/17/2002 9:00 p 39.7 39.7 39.7 39.8 39.6 97 38.9 0.0 0.0 --- 0.00 29.475
11/17/2002 9:30 p 39.7 39.7 39.7 39.8 39.5 97 38.9 0.0 1.0 --- 0.00 29.466
11/17/2002 10:00 p 39.4 39.4 39.4 39.5 39.3 97 38.6 0.0 0.0 --- 0.00 29.434
11/17/2002 10:30 p 39.2 39.2 39.2 39.3 39.1 97 38.4 0.0 2.0 S 0.00 29.434
11/17/2002 11:00 p 39.0 39.0 39.0 39.4 38.0 97 38.2 0.0 2.0 S 0.00 29.464
11/17/2002 11:30 p 38.5 38.5 38.5 38.7 38.0 97 37.7 0.0 3.0 S 0.00 29.462
11/18/2002 12:00 a 38.7 38.7 38.7 38.7 38.5 97 37.9 0.0 3.0 S 0.00 29.467
11/18/2002 12:30 a 38.5 38.5 38.5 38.6 38.5 97 37.7 0.0